<?xml version="1.0" encoding="UTF-8" standalone="no" ?>
<gpx xmlns="http://www.topografix.com/GPX/1/1" xmlns:xsi="http://www.w3.org/2001/XMLSchema-instance" xsi:schemaLocation="http://www.topografix.com/GPX/1/1 http://www.topografix.com/GPX/1/1/gpx.xsd" version="1.1" creator="VisuGPX - https://www.visugpx.com">
  <metadata>
    <name>Tour de France 2019</name>
    <desc><![CDATA[4272km en 2 mois en tandem avec notre petit chien dans le panier avant]]></desc>
  </metadata>
  <trk>
    <name><![CDATA[Tracé 20191012-093644]]></name>
    <trkseg>
      <trkpt lat="44.41359" lon="6.72849">
        <ele>1225.409</ele>
        <time>2019-10-12T07:37:44Z</time>
      </trkpt>
      <trkpt lat="44.41355" lon="6.72875">
        <ele>1221.23</ele>
        <time>2019-10-12T07:45:47Z</time>
      </trkpt>
      <trkpt lat="44.41417" lon="6.72873">
        <ele>1215.863</ele>
        <time>2019-10-12T07:46:17Z</time>
      </trkpt>
      <trkpt lat="44.41562" lon="6.72831">
        <ele>1212.18</ele>
        <time>2019-10-12T07:46:47Z</time>
      </trkpt>
      <trkpt lat="44.41703" lon="6.72923">
        <ele>1214.36</ele>
        <time>2019-10-12T07:47:20Z</time>
      </trkpt>
      <trkpt lat="44.41806" lon="6.73074">
        <ele>1210.651</ele>
        <time>2019-10-12T07:47:50Z</time>
      </trkpt>
      <trkpt lat="44.41864" lon="6.73255">
        <ele>1216.102</ele>
        <time>2019-10-12T07:48:20Z</time>
      </trkpt>
      <trkpt lat="44.41954" lon="6.73408">
        <ele>1217.834</ele>
        <time>2019-10-12T07:48:50Z</time>
      </trkpt>
      <trkpt lat="44.42011" lon="6.73577">
        <ele>1220.558</ele>
        <time>2019-10-12T07:49:20Z</time>
      </trkpt>
      <trkpt lat="44.42027" lon="6.73739">
        <ele>1217.208</ele>
        <time>2019-10-12T07:49:50Z</time>
      </trkpt>
      <trkpt lat="44.42" lon="6.73918">
        <ele>1217.885</ele>
        <time>2019-10-12T07:50:20Z</time>
      </trkpt>
      <trkpt lat="44.4189" lon="6.74046">
        <ele>1216.806</ele>
        <time>2019-10-12T07:50:50Z</time>
      </trkpt>
      <trkpt lat="44.4178" lon="6.74135">
        <ele>1223.35</ele>
        <time>2019-10-12T07:51:23Z</time>
      </trkpt>
      <trkpt lat="44.41705" lon="6.74212">
        <ele>1228.263</ele>
        <time>2019-10-12T07:51:53Z</time>
      </trkpt>
      <trkpt lat="44.41627" lon="6.74308">
        <ele>1232.244</ele>
        <time>2019-10-12T07:52:23Z</time>
      </trkpt>
      <trkpt lat="44.41562" lon="6.74397">
        <ele>1233.955</ele>
        <time>2019-10-12T07:52:53Z</time>
      </trkpt>
      <trkpt lat="44.41528" lon="6.74511">
        <ele>1240.772</ele>
        <time>2019-10-12T07:53:23Z</time>
      </trkpt>
      <trkpt lat="44.41512" lon="6.74622">
        <ele>1250.19</ele>
        <time>2019-10-12T07:53:53Z</time>
      </trkpt>
      <trkpt lat="44.41486" lon="6.74722">
        <ele>1256.374</ele>
        <time>2019-10-12T07:54:23Z</time>
      </trkpt>
      <trkpt lat="44.41454" lon="6.7483">
        <ele>1263.977</ele>
        <time>2019-10-12T07:54:56Z</time>
      </trkpt>
      <trkpt lat="44.41478" lon="6.7492">
        <ele>1266.761</ele>
        <time>2019-10-12T07:55:26Z</time>
      </trkpt>
      <trkpt lat="44.41521" lon="6.75017">
        <ele>1266.261</ele>
        <time>2019-10-12T07:55:56Z</time>
      </trkpt>
      <trkpt lat="44.41548" lon="6.75097">
        <ele>1273.42</ele>
        <time>2019-10-12T07:56:26Z</time>
      </trkpt>
      <trkpt lat="44.41477" lon="6.75138">
        <ele>1272.842</ele>
        <time>2019-10-12T07:56:56Z</time>
      </trkpt>
      <trkpt lat="44.4148" lon="6.7521">
        <ele>1284.466</ele>
        <time>2019-10-12T07:57:26Z</time>
      </trkpt>
      <trkpt lat="44.41486" lon="6.75279">
        <ele>1288.835</ele>
        <time>2019-10-12T07:57:56Z</time>
      </trkpt>
      <trkpt lat="44.41436" lon="6.752">
        <ele>1300.948</ele>
        <time>2019-10-12T07:58:32Z</time>
      </trkpt>
      <trkpt lat="44.41363" lon="6.75149">
        <ele>1299.818</ele>
        <time>2019-10-12T07:59:05Z</time>
      </trkpt>
      <trkpt lat="44.41299" lon="6.7511">
        <ele>1302.176</ele>
        <time>2019-10-12T07:59:35Z</time>
      </trkpt>
      <trkpt lat="44.41305" lon="6.75148">
        <ele>1312.3</ele>
        <time>2019-10-12T08:00:05Z</time>
      </trkpt>
      <trkpt lat="44.41332" lon="6.75216">
        <ele>1320.006</ele>
        <time>2019-10-12T08:00:35Z</time>
      </trkpt>
      <trkpt lat="44.41354" lon="6.75295">
        <ele>1323.954</ele>
        <time>2019-10-12T08:01:05Z</time>
      </trkpt>
      <trkpt lat="44.41363" lon="6.75392">
        <ele>1328.94</ele>
        <time>2019-10-12T08:01:35Z</time>
      </trkpt>
      <trkpt lat="44.41327" lon="6.7536">
        <ele>1331.002</ele>
        <time>2019-10-12T08:02:05Z</time>
      </trkpt>
      <trkpt lat="44.41283" lon="6.75294">
        <ele>1340.439</ele>
        <time>2019-10-12T08:02:38Z</time>
      </trkpt>
      <trkpt lat="44.41244" lon="6.75313">
        <ele>1346.083</ele>
        <time>2019-10-12T08:03:11Z</time>
      </trkpt>
      <trkpt lat="44.4127" lon="6.75381">
        <ele>1354.669</ele>
        <time>2019-10-12T08:03:41Z</time>
      </trkpt>
      <trkpt lat="44.41299" lon="6.75464">
        <ele>1354.672</ele>
        <time>2019-10-12T08:04:11Z</time>
      </trkpt>
      <trkpt lat="44.41299" lon="6.75548">
        <ele>1359.046</ele>
        <time>2019-10-12T08:04:41Z</time>
      </trkpt>
      <trkpt lat="44.41266" lon="6.75566">
        <ele>1358.72</ele>
        <time>2019-10-12T08:05:11Z</time>
      </trkpt>
      <trkpt lat="44.41271" lon="6.75492">
        <ele>1367.83</ele>
        <time>2019-10-12T08:05:41Z</time>
      </trkpt>
      <trkpt lat="44.41234" lon="6.75429">
        <ele>1366.072</ele>
        <time>2019-10-12T08:06:11Z</time>
      </trkpt>
      <trkpt lat="44.41184" lon="6.75363">
        <ele>1372.789</ele>
        <time>2019-10-12T08:06:44Z</time>
      </trkpt>
      <trkpt lat="44.4114" lon="6.75304">
        <ele>1376.646</ele>
        <time>2019-10-12T08:07:14Z</time>
      </trkpt>
      <trkpt lat="44.41126" lon="6.7523">
        <ele>1386.085</ele>
        <time>2019-10-12T08:07:44Z</time>
      </trkpt>
      <trkpt lat="44.41119" lon="6.75144">
        <ele>1390.766</ele>
        <time>2019-10-12T08:08:14Z</time>
      </trkpt>
      <trkpt lat="44.41097" lon="6.75108">
        <ele>1392.047</ele>
        <time>2019-10-12T08:08:44Z</time>
      </trkpt>
      <trkpt lat="44.41088" lon="6.75195">
        <ele>1399.938</ele>
        <time>2019-10-12T08:09:14Z</time>
      </trkpt>
      <trkpt lat="44.41067" lon="6.75274">
        <ele>1401.226</ele>
        <time>2019-10-12T08:09:44Z</time>
      </trkpt>
      <trkpt lat="44.41015" lon="6.7532">
        <ele>1402.442</ele>
        <time>2019-10-12T08:10:14Z</time>
      </trkpt>
      <trkpt lat="44.40947" lon="6.7534">
        <ele>1406.862</ele>
        <time>2019-10-12T08:10:47Z</time>
      </trkpt>
      <trkpt lat="44.40889" lon="6.75349">
        <ele>1413.633</ele>
        <time>2019-10-12T08:11:17Z</time>
      </trkpt>
      <trkpt lat="44.40843" lon="6.75396">
        <ele>1418.401</ele>
        <time>2019-10-12T08:11:47Z</time>
      </trkpt>
      <trkpt lat="44.40784" lon="6.75412">
        <ele>1424.203</ele>
        <time>2019-10-12T08:12:20Z</time>
      </trkpt>
      <trkpt lat="44.40734" lon="6.75448">
        <ele>1430.083</ele>
        <time>2019-10-12T08:12:50Z</time>
      </trkpt>
      <trkpt lat="44.40715" lon="6.75519">
        <ele>1434.917</ele>
        <time>2019-10-12T08:13:20Z</time>
      </trkpt>
      <trkpt lat="44.40667" lon="6.7552">
        <ele>1440.75</ele>
        <time>2019-10-12T08:13:50Z</time>
      </trkpt>
      <trkpt lat="44.40626" lon="6.75456">
        <ele>1444.191</ele>
        <time>2019-10-12T08:14:20Z</time>
      </trkpt>
      <trkpt lat="44.40567" lon="6.75493">
        <ele>1448.799</ele>
        <time>2019-10-12T08:14:53Z</time>
      </trkpt>
      <trkpt lat="44.4056" lon="6.75593">
        <ele>1449.036</ele>
        <time>2019-10-12T08:15:23Z</time>
      </trkpt>
      <trkpt lat="44.40539" lon="6.7568">
        <ele>1453.595</ele>
        <time>2019-10-12T08:15:53Z</time>
      </trkpt>
      <trkpt lat="44.40502" lon="6.75755">
        <ele>1457.563</ele>
        <time>2019-10-12T08:16:23Z</time>
      </trkpt>
      <trkpt lat="44.40512" lon="6.75846">
        <ele>1460.08</ele>
        <time>2019-10-12T08:16:53Z</time>
      </trkpt>
      <trkpt lat="44.40504" lon="6.75929">
        <ele>1465.716</ele>
        <time>2019-10-12T08:17:23Z</time>
      </trkpt>
      <trkpt lat="44.40468" lon="6.76004">
        <ele>1472.484</ele>
        <time>2019-10-12T08:17:53Z</time>
      </trkpt>
      <trkpt lat="44.40418" lon="6.76054">
        <ele>1478.942</ele>
        <time>2019-10-12T08:18:26Z</time>
      </trkpt>
      <trkpt lat="44.40361" lon="6.76088">
        <ele>1481.087</ele>
        <time>2019-10-12T08:18:56Z</time>
      </trkpt>
      <trkpt lat="44.40342" lon="6.76179">
        <ele>1481.178</ele>
        <time>2019-10-12T08:19:26Z</time>
      </trkpt>
      <trkpt lat="44.40331" lon="6.76267">
        <ele>1486.176</ele>
        <time>2019-10-12T08:19:56Z</time>
      </trkpt>
      <trkpt lat="44.40302" lon="6.76351">
        <ele>1492.927</ele>
        <time>2019-10-12T08:20:26Z</time>
      </trkpt>
      <trkpt lat="44.4027" lon="6.7643">
        <ele>1497.714</ele>
        <time>2019-10-12T08:20:56Z</time>
      </trkpt>
      <trkpt lat="44.4025" lon="6.76516">
        <ele>1500.066</ele>
        <time>2019-10-12T08:21:26Z</time>
      </trkpt>
      <trkpt lat="44.40233" lon="6.7659">
        <ele>1501.371</ele>
        <time>2019-10-12T08:21:56Z</time>
      </trkpt>
      <trkpt lat="44.40167" lon="6.76592">
        <ele>1504.696</ele>
        <time>2019-10-12T08:22:29Z</time>
      </trkpt>
      <trkpt lat="44.40117" lon="6.7663">
        <ele>1516.043</ele>
        <time>2019-10-12T08:22:59Z</time>
      </trkpt>
      <trkpt lat="44.40081" lon="6.76692">
        <ele>1521.715</ele>
        <time>2019-10-12T08:23:29Z</time>
      </trkpt>
      <trkpt lat="44.40039" lon="6.76746">
        <ele>1523.787</ele>
        <time>2019-10-12T08:23:59Z</time>
      </trkpt>
      <trkpt lat="44.39992" lon="6.7679">
        <ele>1529.689</ele>
        <time>2019-10-12T08:24:29Z</time>
      </trkpt>
      <trkpt lat="44.39935" lon="6.76824">
        <ele>1537.781</ele>
        <time>2019-10-12T08:25:05Z</time>
      </trkpt>
      <trkpt lat="44.39891" lon="6.7688">
        <ele>1542.031</ele>
        <time>2019-10-12T08:25:35Z</time>
      </trkpt>
      <trkpt lat="44.39835" lon="6.76885">
        <ele>1547.553</ele>
        <time>2019-10-12T08:26:05Z</time>
      </trkpt>
      <trkpt lat="44.39791" lon="6.76826">
        <ele>1555.577</ele>
        <time>2019-10-12T08:26:41Z</time>
      </trkpt>
      <trkpt lat="44.39752" lon="6.76766">
        <ele>1559.748</ele>
        <time>2019-10-12T08:27:14Z</time>
      </trkpt>
      <trkpt lat="44.39701" lon="6.76734">
        <ele>1560.619</ele>
        <time>2019-10-12T08:27:47Z</time>
      </trkpt>
      <trkpt lat="44.3965" lon="6.76739">
        <ele>1566.364</ele>
        <time>2019-10-12T08:28:17Z</time>
      </trkpt>
      <trkpt lat="44.39593" lon="6.76734">
        <ele>1571.023</ele>
        <time>2019-10-12T08:28:50Z</time>
      </trkpt>
      <trkpt lat="44.39544" lon="6.76762">
        <ele>1576.304</ele>
        <time>2019-10-12T08:29:23Z</time>
      </trkpt>
      <trkpt lat="44.395" lon="6.76812">
        <ele>1582.608</ele>
        <time>2019-10-12T08:38:17Z</time>
      </trkpt>
      <trkpt lat="44.39469" lon="6.76877">
        <ele>1587.115</ele>
        <time>2019-10-12T08:38:47Z</time>
      </trkpt>
      <trkpt lat="44.39452" lon="6.76954">
        <ele>1589.951</ele>
        <time>2019-10-12T08:39:20Z</time>
      </trkpt>
      <trkpt lat="44.39434" lon="6.77027">
        <ele>1596.886</ele>
        <time>2019-10-12T08:39:50Z</time>
      </trkpt>
      <trkpt lat="44.39401" lon="6.77085">
        <ele>1599.688</ele>
        <time>2019-10-12T08:40:20Z</time>
      </trkpt>
      <trkpt lat="44.39361" lon="6.77133">
        <ele>1603.837</ele>
        <time>2019-10-12T08:40:50Z</time>
      </trkpt>
      <trkpt lat="44.39324" lon="6.77188">
        <ele>1608.709</ele>
        <time>2019-10-12T08:41:20Z</time>
      </trkpt>
      <trkpt lat="44.39293" lon="6.77255">
        <ele>1615.041</ele>
        <time>2019-10-12T08:41:53Z</time>
      </trkpt>
      <trkpt lat="44.39274" lon="6.77331">
        <ele>1623.145</ele>
        <time>2019-10-12T08:42:26Z</time>
      </trkpt>
      <trkpt lat="44.39243" lon="6.77398">
        <ele>1626.085</ele>
        <time>2019-10-12T08:42:59Z</time>
      </trkpt>
      <trkpt lat="44.39214" lon="6.77465">
        <ele>1630.002</ele>
        <time>2019-10-12T08:43:32Z</time>
      </trkpt>
      <trkpt lat="44.3917" lon="6.77513">
        <ele>1635.523</ele>
        <time>2019-10-12T08:44:05Z</time>
      </trkpt>
      <trkpt lat="44.39149" lon="6.77584">
        <ele>1638.483</ele>
        <time>2019-10-12T08:44:35Z</time>
      </trkpt>
      <trkpt lat="44.39131" lon="6.77657">
        <ele>1643.432</ele>
        <time>2019-10-12T08:45:05Z</time>
      </trkpt>
      <trkpt lat="44.39105" lon="6.77726">
        <ele>1647.725</ele>
        <time>2019-10-12T08:45:35Z</time>
      </trkpt>
      <trkpt lat="44.39058" lon="6.77766">
        <ele>1658.006</ele>
        <time>2019-10-12T08:46:05Z</time>
      </trkpt>
      <trkpt lat="44.39008" lon="6.77796">
        <ele>1660.269</ele>
        <time>2019-10-12T08:46:35Z</time>
      </trkpt>
      <trkpt lat="44.38945" lon="6.77821">
        <ele>1663.355</ele>
        <time>2019-10-12T08:47:17Z</time>
      </trkpt>
      <trkpt lat="44.38898" lon="6.7779">
        <ele>1664.092</ele>
        <time>2019-10-12T08:47:47Z</time>
      </trkpt>
      <trkpt lat="44.38851" lon="6.77814">
        <ele>1669.621</ele>
        <time>2019-10-12T08:48:17Z</time>
      </trkpt>
      <trkpt lat="44.38808" lon="6.77855">
        <ele>1674.698</ele>
        <time>2019-10-12T08:48:50Z</time>
      </trkpt>
      <trkpt lat="44.38853" lon="6.77854">
        <ele>1675.602</ele>
        <time>2019-10-12T08:49:23Z</time>
      </trkpt>
      <trkpt lat="44.38897" lon="6.77833">
        <ele>1680.172</ele>
        <time>2019-10-12T08:49:53Z</time>
      </trkpt>
      <trkpt lat="44.3893" lon="6.77904">
        <ele>1690.495</ele>
        <time>2019-10-12T08:50:29Z</time>
      </trkpt>
      <trkpt lat="44.3892" lon="6.77922">
        <ele>1694.812</ele>
        <time>2019-10-12T08:51:05Z</time>
      </trkpt>
      <trkpt lat="44.38867" lon="6.77911">
        <ele>1703.518</ele>
        <time>2019-10-12T08:51:41Z</time>
      </trkpt>
      <trkpt lat="44.38836" lon="6.77968">
        <ele>1707.85</ele>
        <time>2019-10-12T08:52:14Z</time>
      </trkpt>
      <trkpt lat="44.38775" lon="6.77971">
        <ele>1709.793</ele>
        <time>2019-10-12T08:52:56Z</time>
      </trkpt>
      <trkpt lat="44.38775" lon="6.77993">
        <ele>1719.619</ele>
        <time>2019-10-12T08:53:32Z</time>
      </trkpt>
      <trkpt lat="44.38833" lon="6.78008">
        <ele>1729.751</ele>
        <time>2019-10-12T08:54:08Z</time>
      </trkpt>
      <trkpt lat="44.38891" lon="6.78029">
        <ele>1722.335</ele>
        <time>2019-10-12T08:54:41Z</time>
      </trkpt>
      <trkpt lat="44.38916" lon="6.78078">
        <ele>1730.201</ele>
        <time>2019-10-12T08:55:14Z</time>
      </trkpt>
      <trkpt lat="44.38865" lon="6.78058">
        <ele>1737.713</ele>
        <time>2019-10-12T08:55:47Z</time>
      </trkpt>
      <trkpt lat="44.38811" lon="6.7806">
        <ele>1741.731</ele>
        <time>2019-10-12T08:56:20Z</time>
      </trkpt>
      <trkpt lat="44.38751" lon="6.78074">
        <ele>1752.29</ele>
        <time>2019-10-12T08:56:59Z</time>
      </trkpt>
      <trkpt lat="44.38692" lon="6.78097">
        <ele>1757.763</ele>
        <time>2019-10-12T08:57:38Z</time>
      </trkpt>
      <trkpt lat="44.38638" lon="6.78062">
        <ele>1764.065</ele>
        <time>2019-10-12T08:58:20Z</time>
      </trkpt>
      <trkpt lat="44.38569" lon="6.78041">
        <ele>1768.572</ele>
        <time>2019-10-12T08:59:02Z</time>
      </trkpt>
      <trkpt lat="44.38504" lon="6.78031">
        <ele>1779.235</ele>
        <time>2019-10-12T08:59:44Z</time>
      </trkpt>
      <trkpt lat="44.38455" lon="6.77991">
        <ele>1782.19</ele>
        <time>2019-10-12T09:00:26Z</time>
      </trkpt>
      <trkpt lat="44.38392" lon="6.78026">
        <ele>1783.263</ele>
        <time>2019-10-12T09:01:08Z</time>
      </trkpt>
      <trkpt lat="44.38333" lon="6.78041">
        <ele>1789.676</ele>
        <time>2019-10-12T09:01:53Z</time>
      </trkpt>
      <trkpt lat="44.3828" lon="6.78056">
        <ele>1784.001</ele>
        <time>2019-10-12T09:02:26Z</time>
      </trkpt>
      <trkpt lat="44.3823" lon="6.78029">
        <ele>1789.473</ele>
        <time>2019-10-12T09:02:59Z</time>
      </trkpt>
      <trkpt lat="44.3818" lon="6.78039">
        <ele>1792.614</ele>
        <time>2019-10-12T09:03:29Z</time>
      </trkpt>
      <trkpt lat="44.38113" lon="6.78039">
        <ele>1803.819</ele>
        <time>2019-10-12T09:04:14Z</time>
      </trkpt>
      <trkpt lat="44.38058" lon="6.78069">
        <ele>1813.78</ele>
        <time>2019-10-12T09:04:59Z</time>
      </trkpt>
      <trkpt lat="44.38116" lon="6.78085">
        <ele>1825.796</ele>
        <time>2019-10-12T09:05:35Z</time>
      </trkpt>
      <trkpt lat="44.38166" lon="6.78127">
        <ele>1823.945</ele>
        <time>2019-10-12T09:06:14Z</time>
      </trkpt>
      <trkpt lat="44.38161" lon="6.78152">
        <ele>1827.938</ele>
        <time>2019-10-12T09:06:44Z</time>
      </trkpt>
      <trkpt lat="44.38102" lon="6.78148">
        <ele>1833.789</ele>
        <time>2019-10-12T09:07:23Z</time>
      </trkpt>
      <trkpt lat="44.38049" lon="6.78165">
        <ele>1839.496</ele>
        <time>2019-10-12T09:07:56Z</time>
      </trkpt>
      <trkpt lat="44.37996" lon="6.78184">
        <ele>1843.297</ele>
        <time>2019-10-12T09:08:29Z</time>
      </trkpt>
      <trkpt lat="44.37943" lon="6.78189">
        <ele>1846.857</ele>
        <time>2019-10-12T09:09:02Z</time>
      </trkpt>
      <trkpt lat="44.37885" lon="6.78184">
        <ele>1852.422</ele>
        <time>2019-10-12T09:09:38Z</time>
      </trkpt>
      <trkpt lat="44.37828" lon="6.78182">
        <ele>1854.832</ele>
        <time>2019-10-12T09:10:14Z</time>
      </trkpt>
      <trkpt lat="44.37778" lon="6.78144">
        <ele>1861.2</ele>
        <time>2019-10-12T09:10:50Z</time>
      </trkpt>
      <trkpt lat="44.37724" lon="6.7811">
        <ele>1866.041</ele>
        <time>2019-10-12T09:11:29Z</time>
      </trkpt>
      <trkpt lat="44.37667" lon="6.78127">
        <ele>1877.257</ele>
        <time>2019-10-12T09:12:08Z</time>
      </trkpt>
      <trkpt lat="44.37616" lon="6.7819">
        <ele>1882.867</ele>
        <time>2019-10-12T09:12:50Z</time>
      </trkpt>
      <trkpt lat="44.37556" lon="6.78222">
        <ele>1883.924</ele>
        <time>2019-10-12T09:13:32Z</time>
      </trkpt>
      <trkpt lat="44.37505" lon="6.7825">
        <ele>1889.8</ele>
        <time>2019-10-12T09:14:05Z</time>
      </trkpt>
      <trkpt lat="44.37469" lon="6.78252">
        <ele>1895.497</ele>
        <time>2019-10-12T09:23:20Z</time>
      </trkpt>
      <trkpt lat="44.37405" lon="6.78252">
        <ele>1893.408</ele>
        <time>2019-10-12T09:26:47Z</time>
      </trkpt>
      <trkpt lat="44.37348" lon="6.78244">
        <ele>1901.68</ele>
        <time>2019-10-12T09:27:23Z</time>
      </trkpt>
      <trkpt lat="44.37254" lon="6.78194">
        <ele>1907.474</ele>
        <time>2019-10-12T09:28:26Z</time>
      </trkpt>
      <trkpt lat="44.37174" lon="6.78219">
        <ele>1910.485</ele>
        <time>2019-10-12T09:29:14Z</time>
      </trkpt>
      <trkpt lat="44.37062" lon="6.78301">
        <ele>1935.742</ele>
        <time>2019-10-12T09:30:44Z</time>
      </trkpt>
      <trkpt lat="44.36963" lon="6.78452">
        <ele>1952.394</ele>
        <time>2019-10-12T09:32:17Z</time>
      </trkpt>
      <trkpt lat="44.36915" lon="6.78517">
        <ele>1960.391</ele>
        <time>2019-10-12T09:32:59Z</time>
      </trkpt>
      <trkpt lat="44.36859" lon="6.78552">
        <ele>1965.224</ele>
        <time>2019-10-12T09:33:41Z</time>
      </trkpt>
      <trkpt lat="44.36733" lon="6.78634">
        <ele>1973.667</ele>
        <time>2019-10-12T09:35:08Z</time>
      </trkpt>
      <trkpt lat="44.36666" lon="6.7865">
        <ele>1980.127</ele>
        <time>2019-10-12T09:35:56Z</time>
      </trkpt>
      <trkpt lat="44.36689" lon="6.78674">
        <ele>1988.713</ele>
        <time>2019-10-12T09:36:38Z</time>
      </trkpt>
      <trkpt lat="44.36742" lon="6.78692">
        <ele>1993.899</ele>
        <time>2019-10-12T09:37:11Z</time>
      </trkpt>
      <trkpt lat="44.36794" lon="6.78681">
        <ele>1994.826</ele>
        <time>2019-10-12T09:37:44Z</time>
      </trkpt>
      <trkpt lat="44.36849" lon="6.78685">
        <ele>1999.69</ele>
        <time>2019-10-12T09:38:17Z</time>
      </trkpt>
      <trkpt lat="44.3685" lon="6.78701">
        <ele>2007.008</ele>
        <time>2019-10-12T09:39:02Z</time>
      </trkpt>
      <trkpt lat="44.36785" lon="6.78734">
        <ele>2010.56</ele>
        <time>2019-10-12T09:39:44Z</time>
      </trkpt>
      <trkpt lat="44.36709" lon="6.78794">
        <ele>2018.8</ele>
        <time>2019-10-12T09:40:53Z</time>
      </trkpt>
      <trkpt lat="44.36646" lon="6.78846">
        <ele>2025.726</ele>
        <time>2019-10-12T09:41:32Z</time>
      </trkpt>
      <trkpt lat="44.36585" lon="6.78863">
        <ele>2029.487</ele>
        <time>2019-10-12T09:42:17Z</time>
      </trkpt>
      <trkpt lat="44.365" lon="6.7883">
        <ele>2044.476</ele>
        <time>2019-10-12T09:43:23Z</time>
      </trkpt>
      <trkpt lat="44.36419" lon="6.78804">
        <ele>2049.251</ele>
        <time>2019-10-12T09:44:14Z</time>
      </trkpt>
      <trkpt lat="44.36326" lon="6.78812">
        <ele>2049.004</ele>
        <time>2019-10-12T09:45:05Z</time>
      </trkpt>
      <trkpt lat="44.36184" lon="6.78749">
        <ele>2051.481</ele>
        <time>2019-10-12T09:45:35Z</time>
      </trkpt>
      <trkpt lat="44.36129" lon="6.78678">
        <ele>2066.96</ele>
        <time>2019-10-12T09:46:11Z</time>
      </trkpt>
      <trkpt lat="44.36099" lon="6.78605">
        <ele>2081.054</ele>
        <time>2019-10-12T09:46:50Z</time>
      </trkpt>
      <trkpt lat="44.36055" lon="6.78559">
        <ele>2075.062</ele>
        <time>2019-10-12T09:47:29Z</time>
      </trkpt>
      <trkpt lat="44.36021" lon="6.78504">
        <ele>2077.733</ele>
        <time>2019-10-12T09:48:05Z</time>
      </trkpt>
      <trkpt lat="44.36" lon="6.78434">
        <ele>2084.941</ele>
        <time>2019-10-12T09:48:41Z</time>
      </trkpt>
      <trkpt lat="44.35952" lon="6.78376">
        <ele>2089.956</ele>
        <time>2019-10-12T09:49:26Z</time>
      </trkpt>
      <trkpt lat="44.35908" lon="6.78323">
        <ele>2097.27</ele>
        <time>2019-10-12T09:50:02Z</time>
      </trkpt>
      <trkpt lat="44.35857" lon="6.78298">
        <ele>2097.714</ele>
        <time>2019-10-12T09:50:32Z</time>
      </trkpt>
      <trkpt lat="44.35805" lon="6.78361">
        <ele>2095.357</ele>
        <time>2019-10-12T09:51:05Z</time>
      </trkpt>
      <trkpt lat="44.35749" lon="6.78349">
        <ele>2097.906</ele>
        <time>2019-10-12T09:51:35Z</time>
      </trkpt>
      <trkpt lat="44.35694" lon="6.78336">
        <ele>2101.162</ele>
        <time>2019-10-12T09:52:05Z</time>
      </trkpt>
      <trkpt lat="44.35647" lon="6.783">
        <ele>2108.242</ele>
        <time>2019-10-12T09:52:35Z</time>
      </trkpt>
      <trkpt lat="44.35597" lon="6.78264">
        <ele>2116.5</ele>
        <time>2019-10-12T09:53:05Z</time>
      </trkpt>
      <trkpt lat="44.35535" lon="6.78256">
        <ele>2113.396</ele>
        <time>2019-10-12T09:53:47Z</time>
      </trkpt>
      <trkpt lat="44.35479" lon="6.78283">
        <ele>2121.652</ele>
        <time>2019-10-12T09:54:23Z</time>
      </trkpt>
      <trkpt lat="44.35432" lon="6.78335">
        <ele>2125.157</ele>
        <time>2019-10-12T09:55:02Z</time>
      </trkpt>
      <trkpt lat="44.35354" lon="6.78356">
        <ele>2134.547</ele>
        <time>2019-10-12T09:55:59Z</time>
      </trkpt>
      <trkpt lat="44.35292" lon="6.78342">
        <ele>2140.955</ele>
        <time>2019-10-12T09:56:41Z</time>
      </trkpt>
      <trkpt lat="44.35246" lon="6.78304">
        <ele>2147.534</ele>
        <time>2019-10-12T09:57:14Z</time>
      </trkpt>
      <trkpt lat="44.35181" lon="6.78266">
        <ele>2153.37</ele>
        <time>2019-10-12T09:58:02Z</time>
      </trkpt>
      <trkpt lat="44.35149" lon="6.78308">
        <ele>2152.773</ele>
        <time>2019-10-12T10:10:11Z</time>
      </trkpt>
      <trkpt lat="44.35152" lon="6.78391">
        <ele>2162.22</ele>
        <time>2019-10-12T10:11:08Z</time>
      </trkpt>
      <trkpt lat="44.35138" lon="6.78447">
        <ele>2166.774</ele>
        <time>2019-10-12T10:12:26Z</time>
      </trkpt>
      <trkpt lat="44.35171" lon="6.78505">
        <ele>2170.466</ele>
        <time>2019-10-12T10:12:59Z</time>
      </trkpt>
      <trkpt lat="44.35117" lon="6.7849">
        <ele>2177.019</ele>
        <time>2019-10-12T10:13:35Z</time>
      </trkpt>
      <trkpt lat="44.35053" lon="6.78449">
        <ele>2187.56</ele>
        <time>2019-10-12T10:14:23Z</time>
      </trkpt>
      <trkpt lat="44.35034" lon="6.78368">
        <ele>2196.613</ele>
        <time>2019-10-12T10:15:05Z</time>
      </trkpt>
      <trkpt lat="44.34973" lon="6.78353">
        <ele>2200.197</ele>
        <time>2019-10-12T10:15:53Z</time>
      </trkpt>
      <trkpt lat="44.34897" lon="6.78355">
        <ele>2207.345</ele>
        <time>2019-10-12T10:16:47Z</time>
      </trkpt>
      <trkpt lat="44.34864" lon="6.78393">
        <ele>2210.655</ele>
        <time>2019-10-12T10:17:26Z</time>
      </trkpt>
      <trkpt lat="44.349" lon="6.78446">
        <ele>2215.872</ele>
        <time>2019-10-12T10:17:56Z</time>
      </trkpt>
      <trkpt lat="44.3495" lon="6.78489">
        <ele>2220.662</ele>
        <time>2019-10-12T10:18:32Z</time>
      </trkpt>
      <trkpt lat="44.3499" lon="6.78525">
        <ele>2228.014</ele>
        <time>2019-10-12T10:19:02Z</time>
      </trkpt>
      <trkpt lat="44.34946" lon="6.78512">
        <ele>2231.22</ele>
        <time>2019-10-12T10:19:32Z</time>
      </trkpt>
      <trkpt lat="44.34878" lon="6.7849">
        <ele>2240.059</ele>
        <time>2019-10-12T10:20:23Z</time>
      </trkpt>
      <trkpt lat="44.34828" lon="6.78446">
        <ele>2247.139</ele>
        <time>2019-10-12T10:21:14Z</time>
      </trkpt>
      <trkpt lat="44.34794" lon="6.78483">
        <ele>2255.565</ele>
        <time>2019-10-12T10:22:11.001Z</time>
      </trkpt>
      <trkpt lat="44.34768" lon="6.78551">
        <ele>2261.366</ele>
        <time>2019-10-12T10:22:53Z</time>
      </trkpt>
      <trkpt lat="44.34829" lon="6.78554">
        <ele>2264.208</ele>
        <time>2019-10-12T10:23:23Z</time>
      </trkpt>
      <trkpt lat="44.34801" lon="6.78613">
        <ele>2267.305</ele>
        <time>2019-10-12T10:23:59Z</time>
      </trkpt>
      <trkpt lat="44.34745" lon="6.78673">
        <ele>2276.583</ele>
        <time>2019-10-12T10:24:50Z</time>
      </trkpt>
      <trkpt lat="44.34689" lon="6.78712">
        <ele>2281.278</ele>
        <time>2019-10-12T10:25:32Z</time>
      </trkpt>
      <trkpt lat="44.34636" lon="6.78677">
        <ele>2284.039</ele>
        <time>2019-10-12T10:26:02Z</time>
      </trkpt>
      <trkpt lat="44.34587" lon="6.78646">
        <ele>2288.225</ele>
        <time>2019-10-12T10:26:32Z</time>
      </trkpt>
      <trkpt lat="44.34541" lon="6.78592">
        <ele>2292.627</ele>
        <time>2019-10-12T10:27:11Z</time>
      </trkpt>
      <trkpt lat="44.34495" lon="6.78532">
        <ele>2300.382</ele>
        <time>2019-10-12T10:27:56Z</time>
      </trkpt>
      <trkpt lat="44.34474" lon="6.7845">
        <ele>2306.891</ele>
        <time>2019-10-12T10:28:47Z</time>
      </trkpt>
      <trkpt lat="44.34409" lon="6.78441">
        <ele>2312.964</ele>
        <time>2019-10-12T10:29:29Z</time>
      </trkpt>
      <trkpt lat="44.3435" lon="6.78464">
        <ele>2317.578</ele>
        <time>2019-10-12T10:30:11Z</time>
      </trkpt>
      <trkpt lat="44.34311" lon="6.78429">
        <ele>2321.969</ele>
        <time>2019-10-12T10:30:41Z</time>
      </trkpt>
      <trkpt lat="44.34318" lon="6.78347">
        <ele>2325.429</ele>
        <time>2019-10-12T10:31:17Z</time>
      </trkpt>
      <trkpt lat="44.343" lon="6.78273">
        <ele>2329.724</ele>
        <time>2019-10-12T10:31:47Z</time>
      </trkpt>
      <trkpt lat="44.34252" lon="6.78221">
        <ele>2332.74</ele>
        <time>2019-10-12T10:32:17Z</time>
      </trkpt>
      <trkpt lat="44.34201" lon="6.78214">
        <ele>2335.324</ele>
        <time>2019-10-12T10:32:47Z</time>
      </trkpt>
      <trkpt lat="44.34135" lon="6.78245">
        <ele>2339.701</ele>
        <time>2019-10-12T10:33:23Z</time>
      </trkpt>
      <trkpt lat="44.34083" lon="6.7826">
        <ele>2343.427</ele>
        <time>2019-10-12T10:33:53Z</time>
      </trkpt>
      <trkpt lat="44.34029" lon="6.7827">
        <ele>2346.604</ele>
        <time>2019-10-12T10:34:26Z</time>
      </trkpt>
      <trkpt lat="44.33978" lon="6.78249">
        <ele>2353.266</ele>
        <time>2019-10-12T10:35:02Z</time>
      </trkpt>
      <trkpt lat="44.33914" lon="6.78289">
        <ele>2358.612</ele>
        <time>2019-10-12T10:35:53Z</time>
      </trkpt>
      <trkpt lat="44.33879" lon="6.78352">
        <ele>2360.599</ele>
        <time>2019-10-12T10:36:29Z</time>
      </trkpt>
      <trkpt lat="44.33845" lon="6.78414">
        <ele>2366.48</ele>
        <time>2019-10-12T10:37:05Z</time>
      </trkpt>
      <trkpt lat="44.33798" lon="6.78454">
        <ele>2370.118</ele>
        <time>2019-10-12T10:37:35Z</time>
      </trkpt>
      <trkpt lat="44.33845" lon="6.78516">
        <ele>2370.936</ele>
        <time>2019-10-12T10:38:08Z</time>
      </trkpt>
      <trkpt lat="44.3384" lon="6.78614">
        <ele>2371.448</ele>
        <time>2019-10-12T10:38:38Z</time>
      </trkpt>
      <trkpt lat="44.33797" lon="6.78673">
        <ele>2377.477</ele>
        <time>2019-10-12T10:39:08Z</time>
      </trkpt>
      <trkpt lat="44.33752" lon="6.78752">
        <ele>2383.082</ele>
        <time>2019-10-12T10:39:53Z</time>
      </trkpt>
      <trkpt lat="44.3377" lon="6.78821">
        <ele>2386.148</ele>
        <time>2019-10-12T10:40:26Z</time>
      </trkpt>
      <trkpt lat="44.33761" lon="6.78902">
        <ele>2388.337</ele>
        <time>2019-10-12T10:40:56Z</time>
      </trkpt>
      <trkpt lat="44.33779" lon="6.78977">
        <ele>2389.454</ele>
        <time>2019-10-12T10:41:26Z</time>
      </trkpt>
      <trkpt lat="44.33782" lon="6.79036">
        <ele>2393.155</ele>
        <time>2019-10-12T10:50:11Z</time>
      </trkpt>
      <trkpt lat="44.33788" lon="6.79122">
        <ele>2396.446</ele>
        <time>2019-10-12T10:50:44Z</time>
      </trkpt>
      <trkpt lat="44.33799" lon="6.79195">
        <ele>2400.004</ele>
        <time>2019-10-12T10:51:14Z</time>
      </trkpt>
      <trkpt lat="44.33857" lon="6.79191">
        <ele>2406.419</ele>
        <time>2019-10-12T10:51:47Z</time>
      </trkpt>
      <trkpt lat="44.33908" lon="6.79168">
        <ele>2409.888</ele>
        <time>2019-10-12T10:52:17Z</time>
      </trkpt>
      <trkpt lat="44.33964" lon="6.79159">
        <ele>2416.348</ele>
        <time>2019-10-12T10:52:53Z</time>
      </trkpt>
      <trkpt lat="44.34023" lon="6.79094">
        <ele>2421.538</ele>
        <time>2019-10-12T10:53:50Z</time>
      </trkpt>
      <trkpt lat="44.3404" lon="6.79015">
        <ele>2426.588</ele>
        <time>2019-10-12T10:54:29Z</time>
      </trkpt>
      <trkpt lat="44.34083" lon="6.78917">
        <ele>2436.344</ele>
        <time>2019-10-12T10:55:26Z</time>
      </trkpt>
      <trkpt lat="44.34073" lon="6.78979">
        <ele>2438.493</ele>
        <time>2019-10-12T10:56:05Z</time>
      </trkpt>
      <trkpt lat="44.34081" lon="6.79056">
        <ele>2443.723</ele>
        <time>2019-10-12T10:56:41Z</time>
      </trkpt>
      <trkpt lat="44.34077" lon="6.79168">
        <ele>2454.28</ele>
        <time>2019-10-12T10:57:41Z</time>
      </trkpt>
      <trkpt lat="44.34036" lon="6.79246">
        <ele>2460.682</ele>
        <time>2019-10-12T10:58:32Z</time>
      </trkpt>
      <trkpt lat="44.33997" lon="6.79314">
        <ele>2468.828</ele>
        <time>2019-10-12T10:59:14Z</time>
      </trkpt>
      <trkpt lat="44.34039" lon="6.79358">
        <ele>2477.166</ele>
        <time>2019-10-12T10:59:56Z</time>
      </trkpt>
      <trkpt lat="44.34093" lon="6.79393">
        <ele>2482.726</ele>
        <time>2019-10-12T11:00:44Z</time>
      </trkpt>
      <trkpt lat="44.34137" lon="6.79483">
        <ele>2491.849</ele>
        <time>2019-10-12T11:01:44Z</time>
      </trkpt>
      <trkpt lat="44.34194" lon="6.79465">
        <ele>2496.365</ele>
        <time>2019-10-12T11:02:26Z</time>
      </trkpt>
      <trkpt lat="44.34264" lon="6.79438">
        <ele>2503.379</ele>
        <time>2019-10-12T11:03:20Z</time>
      </trkpt>
      <trkpt lat="44.34341" lon="6.79432">
        <ele>2512.214</ele>
        <time>2019-10-12T11:04:17Z</time>
      </trkpt>
      <trkpt lat="44.34392" lon="6.79449">
        <ele>2512.525</ele>
        <time>2019-10-12T11:04:50Z</time>
      </trkpt>
      <trkpt lat="44.34342" lon="6.79467">
        <ele>2516.511</ele>
        <time>2019-10-12T11:05:29Z</time>
      </trkpt>
      <trkpt lat="44.3428" lon="6.79529">
        <ele>2525.88</ele>
        <time>2019-10-12T11:06:26Z</time>
      </trkpt>
      <trkpt lat="44.34263" lon="6.79573">
        <ele>2535.014</ele>
        <time>2019-10-12T11:07:17Z</time>
      </trkpt>
      <trkpt lat="44.34313" lon="6.79642">
        <ele>2536.121</ele>
        <time>2019-10-12T11:08:05Z</time>
      </trkpt>
      <trkpt lat="44.34335" lon="6.79702">
        <ele>2536.827</ele>
        <time>2019-10-12T11:08:35Z</time>
      </trkpt>
      <trkpt lat="44.34364" lon="6.79776">
        <ele>2542.934</ele>
        <time>2019-10-12T11:09:14Z</time>
      </trkpt>
      <trkpt lat="44.34396" lon="6.79819">
        <ele>2547.249</ele>
        <time>2019-10-12T11:09:56Z</time>
      </trkpt>
      <trkpt lat="44.34404" lon="6.79745">
        <ele>2550.875</ele>
        <time>2019-10-12T11:10:29Z</time>
      </trkpt>
      <trkpt lat="44.34397" lon="6.79683">
        <ele>2556.167</ele>
        <time>2019-10-12T11:10:59Z</time>
      </trkpt>
      <trkpt lat="44.34426" lon="6.79745">
        <ele>2562.122</ele>
        <time>2019-10-12T11:11:32Z</time>
      </trkpt>
      <trkpt lat="44.3449" lon="6.79786">
        <ele>2569.028</ele>
        <time>2019-10-12T11:12:26Z</time>
      </trkpt>
      <trkpt lat="44.34496" lon="6.79811">
        <ele>2574.344</ele>
        <time>2019-10-12T11:13:23Z</time>
      </trkpt>
      <trkpt lat="44.34436" lon="6.79864">
        <ele>2582.839</ele>
        <time>2019-10-12T11:14:14Z</time>
      </trkpt>
      <trkpt lat="44.3443" lon="6.79944">
        <ele>2588.225</ele>
        <time>2019-10-12T11:14:56Z</time>
      </trkpt>
      <trkpt lat="44.34412" lon="6.80018">
        <ele>2589.24</ele>
        <time>2019-10-12T11:15:26Z</time>
      </trkpt>
      <trkpt lat="44.34382" lon="6.80085">
        <ele>2591.568</ele>
        <time>2019-10-12T11:15:59Z</time>
      </trkpt>
      <trkpt lat="44.34348" lon="6.80139">
        <ele>2595.299</ele>
        <time>2019-10-12T11:16:29Z</time>
      </trkpt>
      <trkpt lat="44.34293" lon="6.80182">
        <ele>2598.881</ele>
        <time>2019-10-12T11:16:59Z</time>
      </trkpt>
      <trkpt lat="44.34222" lon="6.80196">
        <ele>2602.246</ele>
        <time>2019-10-12T11:17:32Z</time>
      </trkpt>
      <trkpt lat="44.34171" lon="6.80208">
        <ele>2606.009</ele>
        <time>2019-10-12T11:18:02Z</time>
      </trkpt>
      <trkpt lat="44.3412" lon="6.80193">
        <ele>2611.284</ele>
        <time>2019-10-12T11:18:32Z</time>
      </trkpt>
      <trkpt lat="44.34067" lon="6.80174">
        <ele>2613.643</ele>
        <time>2019-10-12T11:19:05Z</time>
      </trkpt>
      <trkpt lat="44.34017" lon="6.80144">
        <ele>2621.107</ele>
        <time>2019-10-12T11:19:38Z</time>
      </trkpt>
      <trkpt lat="44.33966" lon="6.80181">
        <ele>2626.728</ele>
        <time>2019-10-12T11:20:26Z</time>
      </trkpt>
      <trkpt lat="44.33924" lon="6.80227">
        <ele>2628.226</ele>
        <time>2019-10-12T11:34:59Z</time>
      </trkpt>
      <trkpt lat="44.33865" lon="6.80249">
        <ele>2633.355</ele>
        <time>2019-10-12T11:35:35Z</time>
      </trkpt>
      <trkpt lat="44.3381" lon="6.8021">
        <ele>2644.188</ele>
        <time>2019-10-12T11:36:14Z</time>
      </trkpt>
      <trkpt lat="44.33753" lon="6.80178">
        <ele>2650.028</ele>
        <time>2019-10-12T11:36:50Z</time>
      </trkpt>
      <trkpt lat="44.33693" lon="6.80128">
        <ele>2650.55</ele>
        <time>2019-10-12T11:37:35Z</time>
      </trkpt>
      <trkpt lat="44.33668" lon="6.80199">
        <ele>2655.244</ele>
        <time>2019-10-12T11:38:14Z</time>
      </trkpt>
      <trkpt lat="44.3367" lon="6.8027">
        <ele>2663.121</ele>
        <time>2019-10-12T11:38:44Z</time>
      </trkpt>
      <trkpt lat="44.33667" lon="6.80352">
        <ele>2663.341</ele>
        <time>2019-10-12T11:39:14Z</time>
      </trkpt>
      <trkpt lat="44.33659" lon="6.80438">
        <ele>2670.72</ele>
        <time>2019-10-12T11:39:44Z</time>
      </trkpt>
      <trkpt lat="44.33657" lon="6.80532">
        <ele>2669.71</ele>
        <time>2019-10-12T11:40:17Z</time>
      </trkpt>
      <trkpt lat="44.33644" lon="6.80648">
        <ele>2669.912</ele>
        <time>2019-10-12T11:40:47Z</time>
      </trkpt>
      <trkpt lat="44.33627" lon="6.80782">
        <ele>2669.48</ele>
        <time>2019-10-12T11:41:17Z</time>
      </trkpt>
      <trkpt lat="44.33563" lon="6.80902">
        <ele>2671.266</ele>
        <time>2019-10-12T11:41:47Z</time>
      </trkpt>
      <trkpt lat="44.33486" lon="6.81001">
        <ele>2673.075</ele>
        <time>2019-10-12T11:42:17Z</time>
      </trkpt>
      <trkpt lat="44.33414" lon="6.81036">
        <ele>2678.032</ele>
        <time>2019-10-12T11:42:47Z</time>
      </trkpt>
      <trkpt lat="44.33356" lon="6.81062">
        <ele>2681.165</ele>
        <time>2019-10-12T11:43:17Z</time>
      </trkpt>
      <trkpt lat="44.33295" lon="6.81067">
        <ele>2683.447</ele>
        <time>2019-10-12T11:43:47Z</time>
      </trkpt>
      <trkpt lat="44.33232" lon="6.8108">
        <ele>2686.773</ele>
        <time>2019-10-12T11:44:20Z</time>
      </trkpt>
      <trkpt lat="44.33177" lon="6.81054">
        <ele>2691.131</ele>
        <time>2019-10-12T11:44:50Z</time>
      </trkpt>
      <trkpt lat="44.33136" lon="6.80998">
        <ele>2697.541</ele>
        <time>2019-10-12T11:45:20Z</time>
      </trkpt>
      <trkpt lat="44.33093" lon="6.8095">
        <ele>2700.164</ele>
        <time>2019-10-12T11:45:50Z</time>
      </trkpt>
      <trkpt lat="44.33049" lon="6.80901">
        <ele>2702.506</ele>
        <time>2019-10-12T11:46:20Z</time>
      </trkpt>
      <trkpt lat="44.32986" lon="6.80829">
        <ele>2703.233</ele>
        <time>2019-10-12T11:46:50Z</time>
      </trkpt>
      <trkpt lat="44.32889" lon="6.80782">
        <ele>2702.295</ele>
        <time>2019-10-12T11:47:20Z</time>
      </trkpt>
      <trkpt lat="44.32778" lon="6.80798">
        <ele>2703.05</ele>
        <time>2019-10-12T11:47:50Z</time>
      </trkpt>
      <trkpt lat="44.32675" lon="6.80742">
        <ele>2707.409</ele>
        <time>2019-10-12T11:48:23Z</time>
      </trkpt>
      <trkpt lat="44.32588" lon="6.80642">
        <ele>2707.646</ele>
        <time>2019-10-12T11:48:53Z</time>
      </trkpt>
      <trkpt lat="44.32524" lon="6.80637">
        <ele>2711.431</ele>
        <time>2019-10-12T11:49:23Z</time>
      </trkpt>
      <trkpt lat="44.32467" lon="6.8064">
        <ele>2716.515</ele>
        <time>2019-10-12T11:49:59Z</time>
      </trkpt>
      <trkpt lat="44.32419" lon="6.80619">
        <ele>2721.499</ele>
        <time>2019-10-12T11:51:20Z</time>
      </trkpt>
      <trkpt lat="44.32355" lon="6.80603">
        <ele>2729.752</ele>
        <time>2019-10-12T11:52:20Z</time>
      </trkpt>
      <trkpt lat="44.32303" lon="6.80555">
        <ele>2736.371</ele>
        <time>2019-10-12T11:53:20Z</time>
      </trkpt>
      <trkpt lat="44.3225" lon="6.80531">
        <ele>2746.17</ele>
        <time>2019-10-12T11:54:26Z</time>
      </trkpt>
      <trkpt lat="44.3221" lon="6.80464">
        <ele>2755.461</ele>
        <time>2019-10-12T11:55:32Z</time>
      </trkpt>
      <trkpt lat="44.32157" lon="6.80457">
        <ele>2761.483</ele>
        <time>2019-10-12T11:56:32Z</time>
      </trkpt>
      <trkpt lat="44.321" lon="6.80455">
        <ele>2767.698</ele>
        <time>2019-10-12T11:57:32Z</time>
      </trkpt>
      <trkpt lat="44.32046" lon="6.80433">
        <ele>2770.85</ele>
        <time>2019-10-12T11:58:32Z</time>
      </trkpt>
      <trkpt lat="44.32035" lon="6.80465">
        <ele>2777.278</ele>
        <time>2019-10-12T11:59:32Z</time>
      </trkpt>
      <trkpt lat="44.32047" lon="6.80519">
        <ele>2781.807</ele>
        <time>2019-10-12T12:00:29Z</time>
      </trkpt>
      <trkpt lat="44.32058" lon="6.80574">
        <ele>2784.553</ele>
        <time>2019-10-12T12:01:17Z</time>
      </trkpt>
      <trkpt lat="44.32073" lon="6.80619">
        <ele>2793.78</ele>
        <time>2019-10-12T12:02:02Z</time>
      </trkpt>
      <trkpt lat="44.32061" lon="6.80677">
        <ele>2797.709</ele>
        <time>2019-10-12T12:02:53Z</time>
      </trkpt>
      <trkpt lat="44.32043" lon="6.80736">
        <ele>2796.271</ele>
        <time>2019-10-12T12:03:53Z</time>
      </trkpt>
      <trkpt lat="44.32046" lon="6.80737">
        <ele>2795.287</ele>
        <time>2019-10-12T12:10:26Z</time>
      </trkpt>
      <trkpt lat="44.32075" lon="6.8078">
        <ele>2794.187</ele>
        <time>2019-10-12T12:11:14Z</time>
      </trkpt>
      <trkpt lat="44.32081" lon="6.80773">
        <ele>2798.666</ele>
        <time>2019-10-12T12:12:41Z</time>
      </trkpt>
      <trkpt lat="44.32075" lon="6.80707">
        <ele>2804.934</ele>
        <time>2019-10-12T12:13:53Z</time>
      </trkpt>
      <trkpt lat="44.32108" lon="6.80649">
        <ele>2814.093</ele>
        <time>2019-10-12T12:15:02Z</time>
      </trkpt>
      <trkpt lat="44.3213" lon="6.80576">
        <ele>2821.748</ele>
        <time>2019-10-12T12:16:23Z</time>
      </trkpt>
      <trkpt lat="44.32129" lon="6.80621">
        <ele>2833.093</ele>
        <time>2019-10-12T12:17:29Z</time>
      </trkpt>
      <trkpt lat="44.32129" lon="6.80653">
        <ele>2834.643</ele>
        <time>2019-10-12T12:18:47Z</time>
      </trkpt>
      <trkpt lat="44.32133" lon="6.80722">
        <ele>2845.251</ele>
        <time>2019-10-12T12:19:44Z</time>
      </trkpt>
      <trkpt lat="44.32158" lon="6.80721">
        <ele>2843.928</ele>
        <time>2019-10-12T12:20:35Z</time>
      </trkpt>
      <trkpt lat="44.32154" lon="6.80679">
        <ele>2846.976</ele>
        <time>2019-10-12T12:21:32Z</time>
      </trkpt>
      <trkpt lat="44.32156" lon="6.80683">
        <ele>2849.823</ele>
        <time>2019-10-12T12:24:26Z</time>
      </trkpt>
      <trkpt lat="44.32154" lon="6.80702">
        <ele>2850.706</ele>
        <time>2019-10-12T12:25:05Z</time>
      </trkpt>
      <trkpt lat="44.32157" lon="6.80708">
        <ele>2849.666</ele>
        <time>2019-10-12T12:34:29Z</time>
      </trkpt>
      <trkpt lat="44.32129" lon="6.80709">
        <ele>2847.732</ele>
        <time>2019-10-12T12:35:41Z</time>
      </trkpt>
      <trkpt lat="44.32131" lon="6.80636">
        <ele>2831.146</ele>
        <time>2019-10-12T12:36:44Z</time>
      </trkpt>
      <trkpt lat="44.32122" lon="6.80583">
        <ele>2828.766</ele>
        <time>2019-10-12T12:37:59Z</time>
      </trkpt>
      <trkpt lat="44.32114" lon="6.80638">
        <ele>2823.961</ele>
        <time>2019-10-12T12:39:02Z</time>
      </trkpt>
      <trkpt lat="44.32081" lon="6.80701">
        <ele>2818.539</ele>
        <time>2019-10-12T12:40:23Z</time>
      </trkpt>
      <trkpt lat="44.3208" lon="6.80753">
        <ele>2808.571</ele>
        <time>2019-10-12T12:41:59Z</time>
      </trkpt>
      <trkpt lat="44.32068" lon="6.80771">
        <ele>2796.081</ele>
        <time>2019-10-12T12:43:11Z</time>
      </trkpt>
      <trkpt lat="44.32044" lon="6.80735">
        <ele>2797.93</ele>
        <time>2019-10-12T12:45:56Z</time>
      </trkpt>
      <trkpt lat="44.32066" lon="6.80775">
        <ele>2798.051</ele>
        <time>2019-10-12T12:54:41Z</time>
      </trkpt>
      <trkpt lat="44.32146" lon="6.80942">
        <ele>2782.293</ele>
        <time>2019-10-12T12:55:11Z</time>
      </trkpt>
      <trkpt lat="44.32266" lon="6.80795">
        <ele>2766.819</ele>
        <time>2019-10-12T12:56:44Z</time>
      </trkpt>
      <trkpt lat="44.32495" lon="6.80671">
        <ele>2722.683</ele>
        <time>2019-10-12T12:57:14Z</time>
      </trkpt>
      <trkpt lat="44.32689" lon="6.80783">
        <ele>2702.947</ele>
        <time>2019-10-12T12:57:44Z</time>
      </trkpt>
      <trkpt lat="44.32894" lon="6.81005">
        <ele>2684.734</ele>
        <time>2019-10-12T12:58:14Z</time>
      </trkpt>
      <trkpt lat="44.33079" lon="6.81329">
        <ele>2657.252</ele>
        <time>2019-10-12T12:58:47Z</time>
      </trkpt>
      <trkpt lat="44.33072" lon="6.81707">
        <ele>2633.916</ele>
        <time>2019-10-12T12:59:17Z</time>
      </trkpt>
      <trkpt lat="44.33063" lon="6.82022">
        <ele>2618.024</ele>
        <time>2019-10-12T12:59:47Z</time>
      </trkpt>
      <trkpt lat="44.33104" lon="6.82333">
        <ele>2593.367</ele>
        <time>2019-10-12T13:00:17Z</time>
      </trkpt>
      <trkpt lat="44.33187" lon="6.82622">
        <ele>2573.979</ele>
        <time>2019-10-12T13:00:47Z</time>
      </trkpt>
      <trkpt lat="44.33375" lon="6.8258">
        <ele>2565.251</ele>
        <time>2019-10-12T13:01:17Z</time>
      </trkpt>
      <trkpt lat="44.336" lon="6.82746">
        <ele>2552.093</ele>
        <time>2019-10-12T13:01:47Z</time>
      </trkpt>
      <trkpt lat="44.33805" lon="6.83048">
        <ele>2531.805</ele>
        <time>2019-10-12T13:02:17Z</time>
      </trkpt>
      <trkpt lat="44.34052" lon="6.83204">
        <ele>2513.658</ele>
        <time>2019-10-12T13:02:50Z</time>
      </trkpt>
      <trkpt lat="44.34009" lon="6.83486">
        <ele>2503.572</ele>
        <time>2019-10-12T13:03:20Z</time>
      </trkpt>
      <trkpt lat="44.34086" lon="6.83801">
        <ele>2490.114</ele>
        <time>2019-10-12T13:03:50Z</time>
      </trkpt>
      <trkpt lat="44.34055" lon="6.84115">
        <ele>2475.084</ele>
        <time>2019-10-12T13:04:20Z</time>
      </trkpt>
      <trkpt lat="44.34145" lon="6.84402">
        <ele>2454.689</ele>
        <time>2019-10-12T13:04:50Z</time>
      </trkpt>
      <trkpt lat="44.34167" lon="6.84676">
        <ele>2436.638</ele>
        <time>2019-10-12T13:05:20Z</time>
      </trkpt>
      <trkpt lat="44.34025" lon="6.84863">
        <ele>2431.765</ele>
        <time>2019-10-12T13:05:50Z</time>
      </trkpt>
      <trkpt lat="44.33859" lon="6.85025">
        <ele>2416.62</ele>
        <time>2019-10-12T13:06:20Z</time>
      </trkpt>
      <trkpt lat="44.33605" lon="6.85041">
        <ele>2391.587</ele>
        <time>2019-10-12T13:06:53Z</time>
      </trkpt>
      <trkpt lat="44.33385" lon="6.85036">
        <ele>2366.004</ele>
        <time>2019-10-12T13:07:23Z</time>
      </trkpt>
      <trkpt lat="44.33276" lon="6.85212">
        <ele>2335.857</ele>
        <time>2019-10-12T13:07:53Z</time>
      </trkpt>
      <trkpt lat="44.3321" lon="6.85477">
        <ele>2311.669</ele>
        <time>2019-10-12T13:08:23Z</time>
      </trkpt>
      <trkpt lat="44.33231" lon="6.85804">
        <ele>2301.769</ele>
        <time>2019-10-12T13:08:53Z</time>
      </trkpt>
      <trkpt lat="44.33171" lon="6.86087">
        <ele>2286.439</ele>
        <time>2019-10-12T13:09:23Z</time>
      </trkpt>
      <trkpt lat="44.33391" lon="6.86365">
        <ele>2263.074</ele>
        <time>2019-10-12T13:09:53Z</time>
      </trkpt>
      <trkpt lat="44.33377" lon="6.86582">
        <ele>2259.476</ele>
        <time>2019-10-12T13:12:41Z</time>
      </trkpt>
      <trkpt lat="44.33331" lon="6.86781">
        <ele>2254.645</ele>
        <time>2019-10-12T13:13:11Z</time>
      </trkpt>
      <trkpt lat="44.33261" lon="6.86733">
        <ele>2235.759</ele>
        <time>2019-10-12T13:13:41Z</time>
      </trkpt>
      <trkpt lat="44.33178" lon="6.868">
        <ele>2215.758</ele>
        <time>2019-10-12T13:14:11Z</time>
      </trkpt>
      <trkpt lat="44.32904" lon="6.86835">
        <ele>2190.646</ele>
        <time>2019-10-12T13:14:41Z</time>
      </trkpt>
      <trkpt lat="44.32981" lon="6.86805">
        <ele>2179.373</ele>
        <time>2019-10-12T13:15:11Z</time>
      </trkpt>
      <trkpt lat="44.32919" lon="6.86525">
        <ele>2163.163</ele>
        <time>2019-10-12T13:15:41Z</time>
      </trkpt>
      <trkpt lat="44.32883" lon="6.86277">
        <ele>2141.836</ele>
        <time>2019-10-12T13:16:11Z</time>
      </trkpt>
      <trkpt lat="44.32707" lon="6.86498">
        <ele>2124.278</ele>
        <time>2019-10-12T13:16:44Z</time>
      </trkpt>
      <trkpt lat="44.32735" lon="6.86306">
        <ele>2103.196</ele>
        <time>2019-10-12T13:17:14Z</time>
      </trkpt>
      <trkpt lat="44.32814" lon="6.86017">
        <ele>2085.484</ele>
        <time>2019-10-12T13:17:44Z</time>
      </trkpt>
      <trkpt lat="44.32731" lon="6.86157">
        <ele>2072.391</ele>
        <time>2019-10-12T13:18:14Z</time>
      </trkpt>
      <trkpt lat="44.32634" lon="6.86213">
        <ele>2055.268</ele>
        <time>2019-10-12T13:18:44Z</time>
      </trkpt>
      <trkpt lat="44.32707" lon="6.85992">
        <ele>2037.424</ele>
        <time>2019-10-12T13:19:14Z</time>
      </trkpt>
      <trkpt lat="44.32697" lon="6.85775">
        <ele>2021.78</ele>
        <time>2019-10-12T13:19:44Z</time>
      </trkpt>
      <trkpt lat="44.32722" lon="6.85633">
        <ele>2016.233</ele>
        <time>2019-10-12T13:20:14Z</time>
      </trkpt>
      <trkpt lat="44.3274" lon="6.85495">
        <ele>2008.409</ele>
        <time>2019-10-12T13:20:47Z</time>
      </trkpt>
      <trkpt lat="44.32665" lon="6.85282">
        <ele>1997.316</ele>
        <time>2019-10-12T13:21:17Z</time>
      </trkpt>
      <trkpt lat="44.32597" lon="6.85413">
        <ele>1984.666</ele>
        <time>2019-10-12T13:21:47Z</time>
      </trkpt>
      <trkpt lat="44.32466" lon="6.85698">
        <ele>1962.762</ele>
        <time>2019-10-12T13:22:17Z</time>
      </trkpt>
      <trkpt lat="44.32365" lon="6.86015">
        <ele>1936.177</ele>
        <time>2019-10-12T13:22:47Z</time>
      </trkpt>
      <trkpt lat="44.32285" lon="6.86226">
        <ele>1921.02</ele>
        <time>2019-10-12T13:23:17Z</time>
      </trkpt>
      <trkpt lat="44.32254" lon="6.8635">
        <ele>1902.688</ele>
        <time>2019-10-12T13:23:47Z</time>
      </trkpt>
      <trkpt lat="44.32168" lon="6.86137">
        <ele>1880.912</ele>
        <time>2019-10-12T13:24:20Z</time>
      </trkpt>
      <trkpt lat="44.32214" lon="6.86078">
        <ele>1881.63</ele>
        <time>2019-10-12T13:28:47Z</time>
      </trkpt>
      <trkpt lat="44.32243" lon="6.85935">
        <ele>1874.177</ele>
        <time>2019-10-12T13:29:17Z</time>
      </trkpt>
      <trkpt lat="44.32108" lon="6.86129">
        <ele>1856.702</ele>
        <time>2019-10-12T13:29:47Z</time>
      </trkpt>
      <trkpt lat="44.32099" lon="6.86474">
        <ele>1833.398</ele>
        <time>2019-10-12T13:30:17Z</time>
      </trkpt>
      <trkpt lat="44.3202" lon="6.86781">
        <ele>1807.762</ele>
        <time>2019-10-12T13:30:47Z</time>
      </trkpt>
      <trkpt lat="44.32006" lon="6.86696">
        <ele>1789.941</ele>
        <time>2019-10-12T13:31:17Z</time>
      </trkpt>
      <trkpt lat="44.31973" lon="6.86807">
        <ele>1775.787</ele>
        <time>2019-10-12T13:31:47Z</time>
      </trkpt>
      <trkpt lat="44.31963" lon="6.87158">
        <ele>1758.232</ele>
        <time>2019-10-12T13:32:20Z</time>
      </trkpt>
      <trkpt lat="44.32009" lon="6.87491">
        <ele>1740.318</ele>
        <time>2019-10-12T13:32:50Z</time>
      </trkpt>
      <trkpt lat="44.32102" lon="6.87767">
        <ele>1717.146</ele>
        <time>2019-10-12T13:33:20Z</time>
      </trkpt>
      <trkpt lat="44.32185" lon="6.88045">
        <ele>1700.455</ele>
        <time>2019-10-12T13:33:50Z</time>
      </trkpt>
      <trkpt lat="44.32288" lon="6.88263">
        <ele>1683.705</ele>
        <time>2019-10-12T13:34:20Z</time>
      </trkpt>
      <trkpt lat="44.32306" lon="6.88508">
        <ele>1669.573</ele>
        <time>2019-10-12T13:34:50Z</time>
      </trkpt>
      <trkpt lat="44.32128" lon="6.88829">
        <ele>1655.141</ele>
        <time>2019-10-12T13:35:20Z</time>
      </trkpt>
      <trkpt lat="44.32053" lon="6.8913">
        <ele>1641.173</ele>
        <time>2019-10-12T13:35:50Z</time>
      </trkpt>
      <trkpt lat="44.31956" lon="6.89439">
        <ele>1625.478</ele>
        <time>2019-10-12T13:36:23Z</time>
      </trkpt>
      <trkpt lat="44.31859" lon="6.8972">
        <ele>1617.91</ele>
        <time>2019-10-12T13:36:53Z</time>
      </trkpt>
      <trkpt lat="44.31687" lon="6.89969">
        <ele>1601.425</ele>
        <time>2019-10-12T13:37:23Z</time>
      </trkpt>
      <trkpt lat="44.31474" lon="6.9007">
        <ele>1583.854</ele>
        <time>2019-10-12T13:37:53Z</time>
      </trkpt>
      <trkpt lat="44.31245" lon="6.90051">
        <ele>1566.127</ele>
        <time>2019-10-12T13:38:23Z</time>
      </trkpt>
      <trkpt lat="44.31052" lon="6.90101">
        <ele>1541.469</ele>
        <time>2019-10-12T13:38:53Z</time>
      </trkpt>
      <trkpt lat="44.30848" lon="6.90206">
        <ele>1523.718</ele>
        <time>2019-10-12T13:39:23Z</time>
      </trkpt>
      <trkpt lat="44.30636" lon="6.90314">
        <ele>1510.749</ele>
        <time>2019-10-12T13:39:56Z</time>
      </trkpt>
      <trkpt lat="44.30558" lon="6.90486">
        <ele>1501.595</ele>
        <time>2019-10-12T13:40:26Z</time>
      </trkpt>
      <trkpt lat="44.30547" lon="6.90358">
        <ele>1497.824</ele>
        <time>2019-10-12T13:40:56Z</time>
      </trkpt>
      <trkpt lat="44.30522" lon="6.90466">
        <ele>1497.304</ele>
        <time>2019-10-12T13:42:02Z</time>
      </trkpt>
      <trkpt lat="44.30526" lon="6.90469">
        <ele>1514.44</ele>
        <time>2019-10-12T13:42:53Z</time>
      </trkpt>
      <trkpt lat="44.30534" lon="6.90468">
        <ele>1527.425</ele>
        <time>2019-10-12T13:44:32Z</time>
      </trkpt>
      <trkpt lat="44.30488" lon="6.90425">
        <ele>1530.536</ele>
        <time>2019-10-12T13:45:44Z</time>
      </trkpt>
      <trkpt lat="44.30278" lon="6.90323">
        <ele>1492.456</ele>
        <time>2019-10-12T13:46:14Z</time>
      </trkpt>
      <trkpt lat="44.30105" lon="6.90248">
        <ele>1453.107</ele>
        <time>2019-10-12T13:46:47Z</time>
      </trkpt>
      <trkpt lat="44.29895" lon="6.90193">
        <ele>1428.043</ele>
        <time>2019-10-12T13:47:17Z</time>
      </trkpt>
      <trkpt lat="44.29684" lon="6.90163">
        <ele>1414.423</ele>
        <time>2019-10-12T13:47:47Z</time>
      </trkpt>
      <trkpt lat="44.29496" lon="6.9018">
        <ele>1402.716</ele>
        <time>2019-10-12T13:48:17Z</time>
      </trkpt>
      <trkpt lat="44.2931" lon="6.90152">
        <ele>1389.113</ele>
        <time>2019-10-12T13:48:47Z</time>
      </trkpt>
      <trkpt lat="44.29135" lon="6.90109">
        <ele>1382.548</ele>
        <time>2019-10-12T13:49:17Z</time>
      </trkpt>
      <trkpt lat="44.28995" lon="6.90009">
        <ele>1379.442</ele>
        <time>2019-10-12T13:49:47Z</time>
      </trkpt>
      <trkpt lat="44.28835" lon="6.89961">
        <ele>1363.558</ele>
        <time>2019-10-12T13:50:17Z</time>
      </trkpt>
      <trkpt lat="44.28678" lon="6.89935">
        <ele>1357.869</ele>
        <time>2019-10-12T13:50:50Z</time>
      </trkpt>
      <trkpt lat="44.28557" lon="6.90052">
        <ele>1340.446</ele>
        <time>2019-10-12T13:51:20Z</time>
      </trkpt>
      <trkpt lat="44.28364" lon="6.90187">
        <ele>1323.123</ele>
        <time>2019-10-12T13:51:50Z</time>
      </trkpt>
      <trkpt lat="44.28168" lon="6.90318">
        <ele>1310.193</ele>
        <time>2019-10-12T13:52:20Z</time>
      </trkpt>
      <trkpt lat="44.27984" lon="6.90511">
        <ele>1290.076</ele>
        <time>2019-10-12T13:52:50Z</time>
      </trkpt>
      <trkpt lat="44.27857" lon="6.90779">
        <ele>1285.051</ele>
        <time>2019-10-12T13:53:20Z</time>
      </trkpt>
      <trkpt lat="44.27713" lon="6.91026">
        <ele>1275.159</ele>
        <time>2019-10-12T13:53:50Z</time>
      </trkpt>
      <trkpt lat="44.27559" lon="6.91311">
        <ele>1255.689</ele>
        <time>2019-10-12T13:54:20Z</time>
      </trkpt>
      <trkpt lat="44.27378" lon="6.91654">
        <ele>1242.707</ele>
        <time>2019-10-12T13:54:53Z</time>
      </trkpt>
      <trkpt lat="44.27147" lon="6.91888">
        <ele>1231.251</ele>
        <time>2019-10-12T13:55:23Z</time>
      </trkpt>
      <trkpt lat="44.26937" lon="6.92115">
        <ele>1220.64</ele>
        <time>2019-10-12T13:55:53Z</time>
      </trkpt>
      <trkpt lat="44.26761" lon="6.92083">
        <ele>1216.435</ele>
        <time>2019-10-12T13:56:23Z</time>
      </trkpt>
      <trkpt lat="44.26604" lon="6.9214">
        <ele>1212.744</ele>
        <time>2019-10-12T13:56:53Z</time>
      </trkpt>
      <trkpt lat="44.26405" lon="6.92144">
        <ele>1206.733</ele>
        <time>2019-10-12T13:57:23Z</time>
      </trkpt>
      <trkpt lat="44.26245" lon="6.92144">
        <ele>1199.428</ele>
        <time>2019-10-12T13:57:53Z</time>
      </trkpt>
      <trkpt lat="44.26043" lon="6.92201">
        <ele>1175.408</ele>
        <time>2019-10-12T13:58:26Z</time>
      </trkpt>
      <trkpt lat="44.25951" lon="6.92422">
        <ele>1160.484</ele>
        <time>2019-10-12T13:58:56Z</time>
      </trkpt>
      <trkpt lat="44.25866" lon="6.92599">
        <ele>1151.316</ele>
        <time>2019-10-12T13:59:26Z</time>
      </trkpt>
      <trkpt lat="44.25789" lon="6.9251">
        <ele>1145.36</ele>
        <time>2019-10-12T13:59:56Z</time>
      </trkpt>
      <trkpt lat="44.25736" lon="6.92585">
        <ele>1148.536</ele>
        <time>2019-10-12T14:02:32Z</time>
      </trkpt>
      <trkpt lat="44.25631" lon="6.92631">
        <ele>1151.688</ele>
        <time>2019-10-12T14:03:02Z</time>
      </trkpt>
      <trkpt lat="44.25566" lon="6.92572">
        <ele>1162.183</ele>
        <time>2019-10-12T14:03:32Z</time>
      </trkpt>
      <trkpt lat="44.25488" lon="6.92511">
        <ele>1169.936</ele>
        <time>2019-10-12T14:04:02Z</time>
      </trkpt>
      <trkpt lat="44.25428" lon="6.92479">
        <ele>1170.591</ele>
        <time>2019-10-12T14:04:41Z</time>
      </trkpt>
      <trkpt lat="44.25353" lon="6.92573">
        <ele>1175.023</ele>
        <time>2019-10-12T14:05:11Z</time>
      </trkpt>
      <trkpt lat="44.25258" lon="6.92659">
        <ele>1168.724</ele>
        <time>2019-10-12T14:05:41Z</time>
      </trkpt>
      <trkpt lat="44.25181" lon="6.92695">
        <ele>1173.131</ele>
        <time>2019-10-12T14:06:11Z</time>
      </trkpt>
      <trkpt lat="44.2513" lon="6.92725">
        <ele>1165.113</ele>
        <time>2019-10-12T14:07:26Z</time>
      </trkpt>
      <trkpt lat="44.25088" lon="6.92771">
        <ele>1163.458</ele>
        <time>2019-10-12T14:08:26Z</time>
      </trkpt>
      <trkpt lat="44.25004" lon="6.92838">
        <ele>1169.866</ele>
        <time>2019-10-12T14:08:56Z</time>
      </trkpt>
      <trkpt lat="44.24944" lon="6.92898">
        <ele>1184.85</ele>
        <time>2019-10-12T14:09:26Z</time>
      </trkpt>
      <trkpt lat="44.24858" lon="6.92991">
        <ele>1194.648</ele>
        <time>2019-10-12T14:09:59Z</time>
      </trkpt>
      <trkpt lat="44.24757" lon="6.93154">
        <ele>1183.245</ele>
        <time>2019-10-12T14:10:29Z</time>
      </trkpt>
      <trkpt lat="44.24651" lon="6.93343">
        <ele>1173.567</ele>
        <time>2019-10-12T14:10:59Z</time>
      </trkpt>
      <trkpt lat="44.24551" lon="6.9339">
        <ele>1178.291</ele>
        <time>2019-10-12T14:11:29Z</time>
      </trkpt>
      <trkpt lat="44.24479" lon="6.93388">
        <ele>1184.248</ele>
        <time>2019-10-12T14:11:59Z</time>
      </trkpt>
      <trkpt lat="44.24466" lon="6.93477">
        <ele>1186.709</ele>
        <time>2019-10-12T14:12:29Z</time>
      </trkpt>
      <trkpt lat="44.24433" lon="6.93543">
        <ele>1196.878</ele>
        <time>2019-10-12T14:12:59Z</time>
      </trkpt>
      <trkpt lat="44.24381" lon="6.93603">
        <ele>1201.387</ele>
        <time>2019-10-12T14:13:32Z</time>
      </trkpt>
      <trkpt lat="44.24338" lon="6.93662">
        <ele>1203.997</ele>
        <time>2019-10-12T14:14:02Z</time>
      </trkpt>
      <trkpt lat="44.24281" lon="6.93693">
        <ele>1207.67</ele>
        <time>2019-10-12T14:14:35Z</time>
      </trkpt>
      <trkpt lat="44.24168" lon="6.93778">
        <ele>1207.172</ele>
        <time>2019-10-12T14:15:05Z</time>
      </trkpt>
      <trkpt lat="44.23942" lon="6.93979">
        <ele>1187.225</ele>
        <time>2019-10-12T14:15:35Z</time>
      </trkpt>
      <trkpt lat="44.23842" lon="6.94202">
        <ele>1166.879</ele>
        <time>2019-10-12T14:16:05Z</time>
      </trkpt>
      <trkpt lat="44.24051" lon="6.93972">
        <ele>1144.877</ele>
        <time>2019-10-12T14:16:35Z</time>
      </trkpt>
      <trkpt lat="44.23895" lon="6.9431">
        <ele>1124.232</ele>
        <time>2019-10-12T14:17:05Z</time>
      </trkpt>
      <trkpt lat="44.23565" lon="6.94653">
        <ele>1099.037</ele>
        <time>2019-10-12T14:17:38Z</time>
      </trkpt>
      <trkpt lat="44.23306" lon="6.95063">
        <ele>1072.667</ele>
        <time>2019-10-12T14:18:08Z</time>
      </trkpt>
      <trkpt lat="44.23172" lon="6.95377">
        <ele>1062.554</ele>
        <time>2019-10-12T14:18:38Z</time>
      </trkpt>
      <trkpt lat="44.23034" lon="6.95595">
        <ele>1063.058</ele>
        <time>2019-10-12T14:19:08Z</time>
      </trkpt>
      <trkpt lat="44.22912" lon="6.95782">
        <ele>1061.428</ele>
        <time>2019-10-12T14:19:38Z</time>
      </trkpt>
      <trkpt lat="44.2275" lon="6.95869">
        <ele>1058.205</ele>
        <time>2019-10-12T14:20:08Z</time>
      </trkpt>
      <trkpt lat="44.22586" lon="6.9597">
        <ele>1060.794</ele>
        <time>2019-10-12T14:20:38Z</time>
      </trkpt>
      <trkpt lat="44.22504" lon="6.96206">
        <ele>1059.889</ele>
        <time>2019-10-12T14:21:08Z</time>
      </trkpt>
      <trkpt lat="44.22362" lon="6.96395">
        <ele>1054.191</ele>
        <time>2019-10-12T14:21:41Z</time>
      </trkpt>
      <trkpt lat="44.22202" lon="6.96518">
        <ele>1043.042</ele>
        <time>2019-10-12T14:22:11Z</time>
      </trkpt>
      <trkpt lat="44.22052" lon="6.96631">
        <ele>1046.163</ele>
        <time>2019-10-12T14:22:41Z</time>
      </trkpt>
      <trkpt lat="44.21891" lon="6.9681">
        <ele>1047.393</ele>
        <time>2019-10-12T14:23:11Z</time>
      </trkpt>
      <trkpt lat="44.21717" lon="6.97">
        <ele>1044.302</ele>
        <time>2019-10-12T14:23:41Z</time>
      </trkpt>
      <trkpt lat="44.21521" lon="6.97132">
        <ele>1037.729</ele>
        <time>2019-10-12T14:24:11Z</time>
      </trkpt>
      <trkpt lat="44.2133" lon="6.97357">
        <ele>1035.413</ele>
        <time>2019-10-12T14:24:41Z</time>
      </trkpt>
      <trkpt lat="44.21095" lon="6.97518">
        <ele>1017.939</ele>
        <time>2019-10-12T14:25:14Z</time>
      </trkpt>
      <trkpt lat="44.20931" lon="6.97679">
        <ele>1013.575</ele>
        <time>2019-10-12T14:25:44Z</time>
      </trkpt>
      <trkpt lat="44.20806" lon="6.97874">
        <ele>1009.779</ele>
        <time>2019-10-12T14:26:14Z</time>
      </trkpt>
      <trkpt lat="44.20714" lon="6.9799">
        <ele>1011.167</ele>
        <time>2019-10-12T14:26:44Z</time>
      </trkpt>
      <trkpt lat="44.20677" lon="6.98249">
        <ele>1007.481</ele>
        <time>2019-10-12T14:27:14Z</time>
      </trkpt>
      <trkpt lat="44.20524" lon="6.98506">
        <ele>1004.565</ele>
        <time>2019-10-12T14:27:44Z</time>
      </trkpt>
      <trkpt lat="44.20401" lon="6.98718">
        <ele>994.525</ele>
        <time>2019-10-12T14:28:14Z</time>
      </trkpt>
      <trkpt lat="44.20281" lon="6.98933">
        <ele>988.857</ele>
        <time>2019-10-12T14:28:44Z</time>
      </trkpt>
      <trkpt lat="44.20146" lon="6.99108">
        <ele>985.187</ele>
        <time>2019-10-12T14:29:17Z</time>
      </trkpt>
      <trkpt lat="44.20114" lon="6.99415">
        <ele>984.227</ele>
        <time>2019-10-12T14:29:47Z</time>
      </trkpt>
      <trkpt lat="44.20002" lon="6.99711">
        <ele>980.421</ele>
        <time>2019-10-12T14:30:17Z</time>
      </trkpt>
      <trkpt lat="44.19921" lon="6.99982">
        <ele>976.72</ele>
        <time>2019-10-12T14:30:47Z</time>
      </trkpt>
      <trkpt lat="44.19804" lon="7.00226">
        <ele>975.127</ele>
        <time>2019-10-12T14:31:17Z</time>
      </trkpt>
      <trkpt lat="44.19739" lon="7.00487">
        <ele>964.906</ele>
        <time>2019-10-12T14:31:47Z</time>
      </trkpt>
      <trkpt lat="44.19598" lon="7.00674">
        <ele>960.45</ele>
        <time>2019-10-12T14:32:17Z</time>
      </trkpt>
      <trkpt lat="44.19457" lon="7.0083">
        <ele>953.198</ele>
        <time>2019-10-12T14:32:47Z</time>
      </trkpt>
      <trkpt lat="44.19343" lon="7.0113">
        <ele>953.208</ele>
        <time>2019-10-12T14:33:20Z</time>
      </trkpt>
      <trkpt lat="44.19155" lon="7.01478">
        <ele>939.128</ele>
        <time>2019-10-12T14:33:50Z</time>
      </trkpt>
      <trkpt lat="44.1899" lon="7.01798">
        <ele>928.294</ele>
        <time>2019-10-12T14:34:20Z</time>
      </trkpt>
      <trkpt lat="44.18949" lon="7.02106">
        <ele>919.371</ele>
        <time>2019-10-12T14:34:50Z</time>
      </trkpt>
      <trkpt lat="44.18913" lon="7.02455">
        <ele>911.173</ele>
        <time>2019-10-12T14:35:20Z</time>
      </trkpt>
      <trkpt lat="44.18968" lon="7.02713">
        <ele>900.04</ele>
        <time>2019-10-12T14:35:50Z</time>
      </trkpt>
      <trkpt lat="44.19039" lon="7.02975">
        <ele>894.576</ele>
        <time>2019-10-12T14:36:20Z</time>
      </trkpt>
      <trkpt lat="44.19041" lon="7.03224">
        <ele>897.996</ele>
        <time>2019-10-12T14:36:50Z</time>
      </trkpt>
      <trkpt lat="44.18983" lon="7.03522">
        <ele>892.049</ele>
        <time>2019-10-12T14:37:23Z</time>
      </trkpt>
      <trkpt lat="44.18932" lon="7.03779">
        <ele>895.962</ele>
        <time>2019-10-12T14:37:53Z</time>
      </trkpt>
      <trkpt lat="44.18934" lon="7.03729">
        <ele>892.484</ele>
        <time>2019-10-12T14:40:05Z</time>
      </trkpt>
      <trkpt lat="44.18937" lon="7.03731">
        <ele>895.918</ele>
        <time>2019-10-12T14:46:20Z</time>
      </trkpt>
      <trkpt lat="44.18938" lon="7.03735">
        <ele>893.673</ele>
        <time>2019-10-12T14:47:44Z</time>
      </trkpt>
      <trkpt lat="44.1893" lon="7.03793">
        <ele>893.035</ele>
        <time>2019-10-12T14:53:59Z</time>
      </trkpt>
      <trkpt lat="44.18894" lon="7.04032">
        <ele>888.58</ele>
        <time>2019-10-12T14:54:29Z</time>
      </trkpt>
      <trkpt lat="44.18802" lon="7.04365">
        <ele>888.556</ele>
        <time>2019-10-12T14:55:02Z</time>
      </trkpt>
      <trkpt lat="44.18681" lon="7.04624">
        <ele>880.161</ele>
        <time>2019-10-12T14:55:32Z</time>
      </trkpt>
      <trkpt lat="44.18585" lon="7.04841">
        <ele>869.353</ele>
        <time>2019-10-12T14:56:02Z</time>
      </trkpt>
      <trkpt lat="44.18502" lon="7.05065">
        <ele>869.975</ele>
        <time>2019-10-12T14:56:32Z</time>
      </trkpt>
      <trkpt lat="44.18435" lon="7.05286">
        <ele>866.858</ele>
        <time>2019-10-12T14:57:02Z</time>
      </trkpt>
      <trkpt lat="44.18509" lon="7.05327">
        <ele>865.953</ele>
        <time>2019-10-12T14:57:35Z</time>
      </trkpt>
      <trkpt lat="44.18455" lon="7.05489">
        <ele>867.081</ele>
        <time>2019-10-12T14:58:05Z</time>
      </trkpt>
      <trkpt lat="44.18291" lon="7.05808">
        <ele>861.961</ele>
        <time>2019-10-12T14:58:35Z</time>
      </trkpt>
      <trkpt lat="44.18108" lon="7.06056">
        <ele>855.241</ele>
        <time>2019-10-12T14:59:08Z</time>
      </trkpt>
      <trkpt lat="44.17967" lon="7.06301">
        <ele>847.569</ele>
        <time>2019-10-12T14:59:38Z</time>
      </trkpt>
      <trkpt lat="44.17892" lon="7.06547">
        <ele>852.165</ele>
        <time>2019-10-12T15:00:08Z</time>
      </trkpt>
      <trkpt lat="44.17758" lon="7.06761">
        <ele>845.733</ele>
        <time>2019-10-12T15:00:38Z</time>
      </trkpt>
      <trkpt lat="44.17645" lon="7.07006">
        <ele>831.669</ele>
        <time>2019-10-12T15:01:08Z</time>
      </trkpt>
      <trkpt lat="44.17609" lon="7.07266">
        <ele>824.867</ele>
        <time>2019-10-12T15:01:38Z</time>
      </trkpt>
      <trkpt lat="44.17587" lon="7.07494">
        <ele>826.517</ele>
        <time>2019-10-12T15:02:08Z</time>
      </trkpt>
      <trkpt lat="44.17517" lon="7.07732">
        <ele>836.584</ele>
        <time>2019-10-12T15:02:38Z</time>
      </trkpt>
      <trkpt lat="44.1731" lon="7.0803">
        <ele>830.694</ele>
        <time>2019-10-12T15:03:11Z</time>
      </trkpt>
      <trkpt lat="44.17219" lon="7.08339">
        <ele>824.181</ele>
        <time>2019-10-12T15:03:41Z</time>
      </trkpt>
      <trkpt lat="44.17086" lon="7.08529">
        <ele>827.703</ele>
        <time>2019-10-12T15:04:11Z</time>
      </trkpt>
      <trkpt lat="44.16901" lon="7.08698">
        <ele>824.004</ele>
        <time>2019-10-12T15:04:41Z</time>
      </trkpt>
      <trkpt lat="44.16608" lon="7.08811">
        <ele>827.563</ele>
        <time>2019-10-12T15:05:11Z</time>
      </trkpt>
      <trkpt lat="44.16276" lon="7.09001">
        <ele>834.938</ele>
        <time>2019-10-12T15:05:41Z</time>
      </trkpt>
      <trkpt lat="44.15929" lon="7.09084">
        <ele>820.666</ele>
        <time>2019-10-12T15:06:11Z</time>
      </trkpt>
      <trkpt lat="44.15602" lon="7.09034">
        <ele>810.94</ele>
        <time>2019-10-12T15:06:44Z</time>
      </trkpt>
      <trkpt lat="44.15428" lon="7.09222">
        <ele>765.331</ele>
        <time>2019-10-12T15:07:14Z</time>
      </trkpt>
      <trkpt lat="44.15217" lon="7.09401">
        <ele>740.716</ele>
        <time>2019-10-12T15:07:44Z</time>
      </trkpt>
      <trkpt lat="44.1507" lon="7.09574">
        <ele>724.641</ele>
        <time>2019-10-12T15:08:14Z</time>
      </trkpt>
      <trkpt lat="44.14893" lon="7.09651">
        <ele>714.909</ele>
        <time>2019-10-12T15:08:44Z</time>
      </trkpt>
      <trkpt lat="44.14678" lon="7.0967">
        <ele>712.629</ele>
        <time>2019-10-12T15:09:14Z</time>
      </trkpt>
      <trkpt lat="44.14498" lon="7.09805">
        <ele>722.562</ele>
        <time>2019-10-12T15:09:44Z</time>
      </trkpt>
      <trkpt lat="44.14331" lon="7.09761">
        <ele>720.676</ele>
        <time>2019-10-12T15:10:14Z</time>
      </trkpt>
      <trkpt lat="44.14141" lon="7.09847">
        <ele>739.821</ele>
        <time>2019-10-12T15:10:47Z</time>
      </trkpt>
      <trkpt lat="44.13982" lon="7.09895">
        <ele>735.239</ele>
        <time>2019-10-12T15:11:17Z</time>
      </trkpt>
      <trkpt lat="44.13816" lon="7.10033">
        <ele>748.867</ele>
        <time>2019-10-12T15:11:47Z</time>
      </trkpt>
      <trkpt lat="44.13562" lon="7.10028">
        <ele>741.098</ele>
        <time>2019-10-12T15:12:17Z</time>
      </trkpt>
      <trkpt lat="44.13332" lon="7.10101">
        <ele>748.518</ele>
        <time>2019-10-12T15:12:47Z</time>
      </trkpt>
      <trkpt lat="44.13057" lon="7.1002">
        <ele>726.782</ele>
        <time>2019-10-12T15:13:17Z</time>
      </trkpt>
      <trkpt lat="44.12837" lon="7.09727">
        <ele>685.522</ele>
        <time>2019-10-12T15:13:47Z</time>
      </trkpt>
      <trkpt lat="44.12699" lon="7.09484">
        <ele>661.077</ele>
        <time>2019-10-12T15:14:17Z</time>
      </trkpt>
      <trkpt lat="44.12537" lon="7.09365">
        <ele>646.205</ele>
        <time>2019-10-12T15:14:50Z</time>
      </trkpt>
      <trkpt lat="44.12306" lon="7.09212">
        <ele>648.393</ele>
        <time>2019-10-12T15:15:20Z</time>
      </trkpt>
      <trkpt lat="44.12074" lon="7.09206">
        <ele>656.412</ele>
        <time>2019-10-12T15:15:50Z</time>
      </trkpt>
      <trkpt lat="44.11898" lon="7.09249">
        <ele>663.632</ele>
        <time>2019-10-12T15:16:20Z</time>
      </trkpt>
      <trkpt lat="44.11691" lon="7.0924">
        <ele>658.698</ele>
        <time>2019-10-12T15:16:50Z</time>
      </trkpt>
      <trkpt lat="44.11547" lon="7.09404">
        <ele>640.966</ele>
        <time>2019-10-12T15:17:20Z</time>
      </trkpt>
      <trkpt lat="44.11405" lon="7.0962">
        <ele>636.548</ele>
        <time>2019-10-12T15:17:50Z</time>
      </trkpt>
      <trkpt lat="44.11181" lon="7.09751">
        <ele>628.406</ele>
        <time>2019-10-12T15:18:23Z</time>
      </trkpt>
      <trkpt lat="44.11022" lon="7.09906">
        <ele>608.701</ele>
        <time>2019-10-12T15:18:53Z</time>
      </trkpt>
      <trkpt lat="44.10891" lon="7.10151">
        <ele>604.194</ele>
        <time>2019-10-12T15:19:23Z</time>
      </trkpt>
      <trkpt lat="44.10655" lon="7.1021">
        <ele>605.365</ele>
        <time>2019-10-12T15:19:53Z</time>
      </trkpt>
      <trkpt lat="44.10429" lon="7.1024">
        <ele>598.941</ele>
        <time>2019-10-12T15:20:23Z</time>
      </trkpt>
      <trkpt lat="44.10201" lon="7.10306">
        <ele>590.97</ele>
        <time>2019-10-12T15:20:53Z</time>
      </trkpt>
      <trkpt lat="44.09921" lon="7.10362">
        <ele>581.132</ele>
        <time>2019-10-12T15:21:23Z</time>
      </trkpt>
      <trkpt lat="44.09654" lon="7.10498">
        <ele>568.129</ele>
        <time>2019-10-12T15:21:53Z</time>
      </trkpt>
      <trkpt lat="44.09297" lon="7.10679">
        <ele>548.397</ele>
        <time>2019-10-12T15:22:26Z</time>
      </trkpt>
      <trkpt lat="44.08998" lon="7.10734">
        <ele>534.646</ele>
        <time>2019-10-12T15:22:56Z</time>
      </trkpt>
      <trkpt lat="44.08716" lon="7.1065">
        <ele>515.753</ele>
        <time>2019-10-12T15:23:26Z</time>
      </trkpt>
      <trkpt lat="44.08467" lon="7.10625">
        <ele>494.945</ele>
        <time>2019-10-12T15:23:56Z</time>
      </trkpt>
      <trkpt lat="44.08355" lon="7.10529">
        <ele>481.968</ele>
        <time>2019-10-12T15:24:26Z</time>
      </trkpt>
      <trkpt lat="44.08212" lon="7.10636">
        <ele>481.406</ele>
        <time>2019-10-12T15:24:56Z</time>
      </trkpt>
      <trkpt lat="44.0804" lon="7.10657">
        <ele>488.375</ele>
        <time>2019-10-12T15:25:26Z</time>
      </trkpt>
      <trkpt lat="44.07881" lon="7.10513">
        <ele>477.154</ele>
        <time>2019-10-12T15:25:56Z</time>
      </trkpt>
      <trkpt lat="44.07713" lon="7.106">
        <ele>471.143</ele>
        <time>2019-10-12T15:26:29Z</time>
      </trkpt>
      <trkpt lat="44.07595" lon="7.10783">
        <ele>476.986</ele>
        <time>2019-10-12T15:26:59Z</time>
      </trkpt>
      <trkpt lat="44.07443" lon="7.10907">
        <ele>474.767</ele>
        <time>2019-10-12T15:27:29Z</time>
      </trkpt>
      <trkpt lat="44.07257" lon="7.1097">
        <ele>463.239</ele>
        <time>2019-10-12T15:27:59Z</time>
      </trkpt>
      <trkpt lat="44.07084" lon="7.10996">
        <ele>471.083</ele>
        <time>2019-10-12T15:28:29Z</time>
      </trkpt>
      <trkpt lat="44.06938" lon="7.11135">
        <ele>474.16</ele>
        <time>2019-10-12T15:28:59Z</time>
      </trkpt>
      <trkpt lat="44.06852" lon="7.11321">
        <ele>466.87</ele>
        <time>2019-10-12T15:29:29Z</time>
      </trkpt>
      <trkpt lat="44.06716" lon="7.11478">
        <ele>469.185</ele>
        <time>2019-10-12T15:29:59Z</time>
      </trkpt>
      <trkpt lat="44.0653" lon="7.11453">
        <ele>471.416</ele>
        <time>2019-10-12T15:30:32Z</time>
      </trkpt>
      <trkpt lat="44.06455" lon="7.11655">
        <ele>459.363</ele>
        <time>2019-10-12T15:31:02Z</time>
      </trkpt>
      <trkpt lat="44.06334" lon="7.11719">
        <ele>470.477</ele>
        <time>2019-10-12T15:31:32Z</time>
      </trkpt>
      <trkpt lat="44.06218" lon="7.11783">
        <ele>473.645</ele>
        <time>2019-10-12T15:32:02Z</time>
      </trkpt>
      <trkpt lat="44.06087" lon="7.11781">
        <ele>476.105</ele>
        <time>2019-10-12T15:32:32Z</time>
      </trkpt>
      <trkpt lat="44.0597" lon="7.11808">
        <ele>473.967</ele>
        <time>2019-10-12T15:33:02Z</time>
      </trkpt>
      <trkpt lat="44.05851" lon="7.11867">
        <ele>469.149</ele>
        <time>2019-10-12T15:33:32Z</time>
      </trkpt>
      <trkpt lat="44.05727" lon="7.11895">
        <ele>473.458</ele>
        <time>2019-10-12T15:34:05Z</time>
      </trkpt>
      <trkpt lat="44.05609" lon="7.11918">
        <ele>475.535</ele>
        <time>2019-10-12T15:34:35Z</time>
      </trkpt>
      <trkpt lat="44.05499" lon="7.11885">
        <ele>469.299</ele>
        <time>2019-10-12T15:35:05Z</time>
      </trkpt>
      <trkpt lat="44.05465" lon="7.11968">
        <ele>469.869</ele>
        <time>2019-10-12T15:35:35Z</time>
      </trkpt>
      <trkpt lat="44.05467" lon="7.12098">
        <ele>477.595</ele>
        <time>2019-10-12T15:40:44Z</time>
      </trkpt>
      <trkpt lat="44.05457" lon="7.12208">
        <ele>468.995</ele>
        <time>2019-10-12T15:41:14Z</time>
      </trkpt>
      <trkpt lat="44.05274" lon="7.12452">
        <ele>460.629</ele>
        <time>2019-10-12T15:42:06Z</time>
      </trkpt>
      <trkpt lat="44.0508" lon="7.12693">
        <ele>452.736</ele>
        <time>2019-10-12T15:42:36Z</time>
      </trkpt>
      <trkpt lat="44.04811" lon="7.12926">
        <ele>432.78</ele>
        <time>2019-10-12T15:43:09Z</time>
      </trkpt>
      <trkpt lat="44.04485" lon="7.12868">
        <ele>422.035</ele>
        <time>2019-10-12T15:43:39Z</time>
      </trkpt>
      <trkpt lat="44.04343" lon="7.12822">
        <ele>427.415</ele>
        <time>2019-10-12T15:44:09Z</time>
      </trkpt>
      <trkpt lat="44.04195" lon="7.129">
        <ele>431.323</ele>
        <time>2019-10-12T15:44:39Z</time>
      </trkpt>
      <trkpt lat="44.04002" lon="7.1283">
        <ele>428.815</ele>
        <time>2019-10-12T15:45:09Z</time>
      </trkpt>
      <trkpt lat="44.03789" lon="7.12763">
        <ele>411.969</ele>
        <time>2019-10-12T15:45:39Z</time>
      </trkpt>
      <trkpt lat="44.03612" lon="7.12905">
        <ele>400.86</ele>
        <time>2019-10-12T15:46:09Z</time>
      </trkpt>
      <trkpt lat="44.03466" lon="7.13175">
        <ele>398.439</ele>
        <time>2019-10-12T15:46:39Z</time>
      </trkpt>
      <trkpt lat="44.03094" lon="7.13218">
        <ele>378.222</ele>
        <time>2019-10-12T15:47:12Z</time>
      </trkpt>
      <trkpt lat="44.02738" lon="7.13114">
        <ele>362.161</ele>
        <time>2019-10-12T15:47:42Z</time>
      </trkpt>
      <trkpt lat="44.02485" lon="7.13171">
        <ele>354.001</ele>
        <time>2019-10-12T15:48:12Z</time>
      </trkpt>
      <trkpt lat="44.02307" lon="7.13126">
        <ele>347.084</ele>
        <time>2019-10-12T15:48:42Z</time>
      </trkpt>
      <trkpt lat="44.02174" lon="7.13111">
        <ele>347.116</ele>
        <time>2019-10-12T15:49:12Z</time>
      </trkpt>
      <trkpt lat="44.02006" lon="7.13151">
        <ele>344.769</ele>
        <time>2019-10-12T15:49:42Z</time>
      </trkpt>
      <trkpt lat="44.01779" lon="7.13137">
        <ele>345.708</ele>
        <time>2019-10-12T15:50:12Z</time>
      </trkpt>
      <trkpt lat="44.01536" lon="7.13094">
        <ele>341.053</ele>
        <time>2019-10-12T15:50:45Z</time>
      </trkpt>
      <trkpt lat="44.01318" lon="7.13161">
        <ele>335.779</ele>
        <time>2019-10-12T15:51:15Z</time>
      </trkpt>
      <trkpt lat="44.01097" lon="7.13177">
        <ele>339.955</ele>
        <time>2019-10-12T15:51:45Z</time>
      </trkpt>
      <trkpt lat="44.00905" lon="7.13311">
        <ele>344.837</ele>
        <time>2019-10-12T15:52:15Z</time>
      </trkpt>
      <trkpt lat="44.00739" lon="7.13472">
        <ele>347.628</ele>
        <time>2019-10-12T15:52:45Z</time>
      </trkpt>
      <trkpt lat="44.00608" lon="7.13643">
        <ele>332.585</ele>
        <time>2019-10-12T15:53:15Z</time>
      </trkpt>
      <trkpt lat="44.00503" lon="7.13714">
        <ele>332.739</ele>
        <time>2019-10-12T15:53:45Z</time>
      </trkpt>
      <trkpt lat="44.00389" lon="7.13781">
        <ele>328.658</ele>
        <time>2019-10-12T15:54:15Z</time>
      </trkpt>
      <trkpt lat="44.00263" lon="7.13833">
        <ele>337.982</ele>
        <time>2019-10-12T15:54:48Z</time>
      </trkpt>
      <trkpt lat="44.00122" lon="7.13811">
        <ele>350.988</ele>
        <time>2019-10-12T15:55:18Z</time>
      </trkpt>
      <trkpt lat="43.99996" lon="7.13732">
        <ele>355.514</ele>
        <time>2019-10-12T15:55:48Z</time>
      </trkpt>
      <trkpt lat="43.99841" lon="7.13725">
        <ele>348.921</ele>
        <time>2019-10-12T15:56:18Z</time>
      </trkpt>
      <trkpt lat="43.99682" lon="7.13777">
        <ele>343.01</ele>
        <time>2019-10-12T15:56:48Z</time>
      </trkpt>
      <trkpt lat="43.99491" lon="7.13711">
        <ele>345.703</ele>
        <time>2019-10-12T15:57:18Z</time>
      </trkpt>
      <trkpt lat="43.99296" lon="7.13696">
        <ele>338.638</ele>
        <time>2019-10-12T15:57:48Z</time>
      </trkpt>
      <trkpt lat="43.99085" lon="7.13693">
        <ele>330.602</ele>
        <time>2019-10-12T15:58:18Z</time>
      </trkpt>
      <trkpt lat="43.98848" lon="7.13648">
        <ele>332.268</ele>
        <time>2019-10-12T15:58:51Z</time>
      </trkpt>
      <trkpt lat="43.98635" lon="7.13639">
        <ele>331.956</ele>
        <time>2019-10-12T15:59:21Z</time>
      </trkpt>
      <trkpt lat="43.98401" lon="7.13771">
        <ele>317.143</ele>
        <time>2019-10-12T15:59:51Z</time>
      </trkpt>
      <trkpt lat="43.98143" lon="7.13945">
        <ele>305.676</ele>
        <time>2019-10-12T16:00:21Z</time>
      </trkpt>
      <trkpt lat="43.979" lon="7.1401">
        <ele>298.988</ele>
        <time>2019-10-12T16:00:51Z</time>
      </trkpt>
      <trkpt lat="43.97745" lon="7.14055">
        <ele>300.823</ele>
        <time>2019-10-12T16:01:21Z</time>
      </trkpt>
      <trkpt lat="43.97674" lon="7.14033">
        <ele>300.744</ele>
        <time>2019-10-12T16:09:24Z</time>
      </trkpt>
      <trkpt lat="43.97687" lon="7.13971">
        <ele>295.547</ele>
        <time>2019-10-12T16:10:00Z</time>
      </trkpt>
      <trkpt lat="43.9769" lon="7.13991">
        <ele>299.114</ele>
        <time>2019-10-12T16:24:28Z</time>
      </trkpt>
      <trkpt lat="43.97647" lon="7.13985">
        <ele>296.658</ele>
        <time>2019-10-12T16:24:58Z</time>
      </trkpt>
      <trkpt lat="43.97564" lon="7.13946">
        <ele>298.411</ele>
        <time>2019-10-12T16:25:28Z</time>
      </trkpt>
      <trkpt lat="43.97493" lon="7.13987">
        <ele>297.744</ele>
        <time>2019-10-12T16:26:16Z</time>
      </trkpt>
      <trkpt lat="43.97454" lon="7.14058">
        <ele>293.213</ele>
        <time>2019-10-12T16:26:49Z</time>
      </trkpt>
      <trkpt lat="43.9745" lon="7.14052">
        <ele>294.943</ele>
        <time>2019-10-12T16:29:43Z</time>
      </trkpt>
      <trkpt lat="43.97461" lon="7.14035">
        <ele>303.161</ele>
        <time>2019-10-12T16:33:36Z</time>
      </trkpt>
      <trkpt lat="43.97451" lon="7.14066">
        <ele>292.005</ele>
        <time>2019-10-12T16:35:06Z</time>
      </trkpt>
      <trkpt lat="43.97444" lon="7.14055">
        <ele>281.171</ele>
        <time>2019-10-12T16:54:27Z</time>
      </trkpt>
      <trkpt lat="43.97486" lon="7.14073">
        <ele>257.946</ele>
        <time>2019-10-12T17:19:17Z</time>
      </trkpt>
      <trkpt lat="43.97455" lon="7.14085">
        <ele>297.76</ele>
        <time>2019-10-12T17:23:02Z</time>
      </trkpt>
    </trkseg>
  </trk>
</gpx>